<?xml version="1.0" encoding="UTF-8" standalone="no" ?>
<gpx xmlns="http://www.topografix.com/GPX/1/1" xmlns:xsi="http://www.w3.org/2001/XMLSchema-instance" xsi:schemaLocation="http://www.topografix.com/GPX/1/1 http://www.topografix.com/GPX/1/1/gpx.xsd" version="1.1" creator="VisuGPX - https://www.visugpx.com">
  <metadata>
    <name>Saint Vincent la commanderie</name>
    <desc><![CDATA[Rando réalisée le matin du 28 février pour ensuite un repas à l'auberge des templiers. Quelques arbres tombés sur le parcours, sinon RAS. Resto très sympa avec du cuisiné maison (pour de vrai!), repas à 14,5? vin compris. Excellent accueil, par contre pensez à réserver car vite complet!
Bonne rando.]]></desc>
  </metadata>
  <trk>
    <name><![CDATA[2020-02-28 08:57:57]]></name>
    <trkseg>
      <trkpt lat="44.9386" lon="5.11711">
        <ele>376.96</ele>
        <time>2020-02-28T07:57:58.000Z</time>
      </trkpt>
      <trkpt lat="44.93864" lon="5.11725">
        <ele>377.85</ele>
        <time>2020-02-28T07:58:08.000Z</time>
      </trkpt>
      <trkpt lat="44.93864" lon="5.11743">
        <ele>378.73</ele>
        <time>2020-02-28T07:58:18.000Z</time>
      </trkpt>
      <trkpt lat="44.93864" lon="5.11761">
        <ele>379.49</ele>
        <time>2020-02-28T07:58:28.000Z</time>
      </trkpt>
      <trkpt lat="44.93862" lon="5.11774">
        <ele>379.9</ele>
        <time>2020-02-28T07:58:38.000Z</time>
      </trkpt>
      <trkpt lat="44.93863" lon="5.11791">
        <ele>380.4</ele>
        <time>2020-02-28T07:58:48.000Z</time>
      </trkpt>
      <trkpt lat="44.93872" lon="5.11798">
        <ele>380.78</ele>
        <time>2020-02-28T07:58:58.000Z</time>
      </trkpt>
      <trkpt lat="44.93873" lon="5.11819">
        <ele>381.44</ele>
        <time>2020-02-28T07:59:08.000Z</time>
      </trkpt>
      <trkpt lat="44.93873" lon="5.11833">
        <ele>381.89</ele>
        <time>2020-02-28T07:59:18.000Z</time>
      </trkpt>
      <trkpt lat="44.93874" lon="5.1185">
        <ele>382.49</ele>
        <time>2020-02-28T07:59:28.000Z</time>
      </trkpt>
      <trkpt lat="44.93871" lon="5.11864">
        <ele>382.95</ele>
        <time>2020-02-28T07:59:38.000Z</time>
      </trkpt>
      <trkpt lat="44.93872" lon="5.11884">
        <ele>383.7</ele>
        <time>2020-02-28T07:59:48.000Z</time>
      </trkpt>
      <trkpt lat="44.93874" lon="5.11903">
        <ele>384.39</ele>
        <time>2020-02-28T07:59:58.000Z</time>
      </trkpt>
      <trkpt lat="44.9387" lon="5.11924">
        <ele>385.23</ele>
        <time>2020-02-28T08:00:08.000Z</time>
      </trkpt>
      <trkpt lat="44.93865" lon="5.11931">
        <ele>385.53</ele>
        <time>2020-02-28T08:00:18.000Z</time>
      </trkpt>
      <trkpt lat="44.9386" lon="5.11947">
        <ele>386.16</ele>
        <time>2020-02-28T08:00:28.000Z</time>
      </trkpt>
      <trkpt lat="44.93855" lon="5.1196">
        <ele>386.66</ele>
        <time>2020-02-28T08:00:38.000Z</time>
      </trkpt>
      <trkpt lat="44.93852" lon="5.1197">
        <ele>387</ele>
        <time>2020-02-28T08:00:48.000Z</time>
      </trkpt>
      <trkpt lat="44.93847" lon="5.11992">
        <ele>387.73</ele>
        <time>2020-02-28T08:00:58.000Z</time>
      </trkpt>
      <trkpt lat="44.93841" lon="5.12007">
        <ele>388.16</ele>
        <time>2020-02-28T08:01:08.000Z</time>
      </trkpt>
      <trkpt lat="44.93835" lon="5.1202">
        <ele>388.57</ele>
        <time>2020-02-28T08:01:18.000Z</time>
      </trkpt>
      <trkpt lat="44.9383" lon="5.12039">
        <ele>389.1</ele>
        <time>2020-02-28T08:01:28.000Z</time>
      </trkpt>
      <trkpt lat="44.93829" lon="5.12059">
        <ele>389.57</ele>
        <time>2020-02-28T08:01:38.000Z</time>
      </trkpt>
      <trkpt lat="44.93828" lon="5.12075">
        <ele>389.9</ele>
        <time>2020-02-28T08:01:48.000Z</time>
      </trkpt>
      <trkpt lat="44.93824" lon="5.12091">
        <ele>390.28</ele>
        <time>2020-02-28T08:01:58.000Z</time>
      </trkpt>
      <trkpt lat="44.93821" lon="5.12099">
        <ele>390.47</ele>
        <time>2020-02-28T08:02:08.000Z</time>
      </trkpt>
      <trkpt lat="44.93817" lon="5.12111">
        <ele>390.73</ele>
        <time>2020-02-28T08:02:18.000Z</time>
      </trkpt>
      <trkpt lat="44.93811" lon="5.12126">
        <ele>391.13</ele>
        <time>2020-02-28T08:02:28.000Z</time>
      </trkpt>
      <trkpt lat="44.93804" lon="5.12143">
        <ele>391.62</ele>
        <time>2020-02-28T08:02:38.000Z</time>
      </trkpt>
      <trkpt lat="44.93798" lon="5.12161">
        <ele>392.27</ele>
        <time>2020-02-28T08:02:48.000Z</time>
      </trkpt>
      <trkpt lat="44.93792" lon="5.12176">
        <ele>392.91</ele>
        <time>2020-02-28T08:02:58.000Z</time>
      </trkpt>
      <trkpt lat="44.93789" lon="5.12189">
        <ele>393.45</ele>
        <time>2020-02-28T08:03:08.000Z</time>
      </trkpt>
      <trkpt lat="44.9379" lon="5.12203">
        <ele>393.86</ele>
        <time>2020-02-28T08:03:18.000Z</time>
      </trkpt>
      <trkpt lat="44.93788" lon="5.1222">
        <ele>394.51</ele>
        <time>2020-02-28T08:03:28.000Z</time>
      </trkpt>
      <trkpt lat="44.93788" lon="5.12233">
        <ele>394.87</ele>
        <time>2020-02-28T08:03:38.000Z</time>
      </trkpt>
      <trkpt lat="44.93787" lon="5.12249">
        <ele>395.43</ele>
        <time>2020-02-28T08:03:48.000Z</time>
      </trkpt>
      <trkpt lat="44.93786" lon="5.1227">
        <ele>396.05</ele>
        <time>2020-02-28T08:03:58.000Z</time>
      </trkpt>
      <trkpt lat="44.93786" lon="5.12293">
        <ele>396.6</ele>
        <time>2020-02-28T08:04:08.000Z</time>
      </trkpt>
      <trkpt lat="44.93785" lon="5.1231">
        <ele>397.03</ele>
        <time>2020-02-28T08:04:18.000Z</time>
      </trkpt>
      <trkpt lat="44.93784" lon="5.12326">
        <ele>397.39</ele>
        <time>2020-02-28T08:04:28.000Z</time>
      </trkpt>
      <trkpt lat="44.93783" lon="5.12341">
        <ele>397.73</ele>
        <time>2020-02-28T08:04:38.000Z</time>
      </trkpt>
      <trkpt lat="44.93782" lon="5.12358">
        <ele>397.99</ele>
        <time>2020-02-28T08:04:48.000Z</time>
      </trkpt>
      <trkpt lat="44.93784" lon="5.12378">
        <ele>397.9</ele>
        <time>2020-02-28T08:04:58.000Z</time>
      </trkpt>
      <trkpt lat="44.93787" lon="5.12389">
        <ele>397.55</ele>
        <time>2020-02-28T08:05:08.000Z</time>
      </trkpt>
      <trkpt lat="44.93788" lon="5.12412">
        <ele>397.45</ele>
        <time>2020-02-28T08:05:18.000Z</time>
      </trkpt>
      <trkpt lat="44.9379" lon="5.12425">
        <ele>397.1</ele>
        <time>2020-02-28T08:05:28.000Z</time>
      </trkpt>
      <trkpt lat="44.93791" lon="5.12446">
        <ele>397.1</ele>
        <time>2020-02-28T08:05:38.000Z</time>
      </trkpt>
      <trkpt lat="44.93792" lon="5.12459">
        <ele>397.05</ele>
        <time>2020-02-28T08:05:48.000Z</time>
      </trkpt>
      <trkpt lat="44.93793" lon="5.12476">
        <ele>396.95</ele>
        <time>2020-02-28T08:05:58.000Z</time>
      </trkpt>
      <trkpt lat="44.93796" lon="5.12494">
        <ele>396.4</ele>
        <time>2020-02-28T08:06:08.000Z</time>
      </trkpt>
      <trkpt lat="44.938" lon="5.12503">
        <ele>395.67</ele>
        <time>2020-02-28T08:06:18.000Z</time>
      </trkpt>
      <trkpt lat="44.93807" lon="5.12514">
        <ele>394.3</ele>
        <time>2020-02-28T08:06:28.000Z</time>
      </trkpt>
      <trkpt lat="44.93812" lon="5.12527">
        <ele>393.1</ele>
        <time>2020-02-28T08:06:38.000Z</time>
      </trkpt>
      <trkpt lat="44.93819" lon="5.12547">
        <ele>391.43</ele>
        <time>2020-02-28T08:06:48.000Z</time>
      </trkpt>
      <trkpt lat="44.9383" lon="5.12561">
        <ele>390.08</ele>
        <time>2020-02-28T08:06:58.000Z</time>
      </trkpt>
      <trkpt lat="44.93839" lon="5.12562">
        <ele>389.82</ele>
        <time>2020-02-28T08:07:08.000Z</time>
      </trkpt>
      <trkpt lat="44.93848" lon="5.12563">
        <ele>390.01</ele>
        <time>2020-02-28T08:07:18.000Z</time>
      </trkpt>
      <trkpt lat="44.93858" lon="5.12563">
        <ele>390.7</ele>
        <time>2020-02-28T08:07:28.000Z</time>
      </trkpt>
      <trkpt lat="44.93875" lon="5.12566">
        <ele>392.53</ele>
        <time>2020-02-28T08:07:38.000Z</time>
      </trkpt>
      <trkpt lat="44.93879" lon="5.1257">
        <ele>393.23</ele>
        <time>2020-02-28T08:07:54.000Z</time>
      </trkpt>
      <trkpt lat="44.93889" lon="5.12576">
        <ele>394.72</ele>
        <time>2020-02-28T08:08:04.000Z</time>
      </trkpt>
      <trkpt lat="44.9391" lon="5.1258">
        <ele>397.39</ele>
        <time>2020-02-28T08:08:14.000Z</time>
      </trkpt>
      <trkpt lat="44.93924" lon="5.12585">
        <ele>398.39</ele>
        <time>2020-02-28T08:08:24.000Z</time>
      </trkpt>
      <trkpt lat="44.93937" lon="5.12591">
        <ele>399.16</ele>
        <time>2020-02-28T08:08:34.000Z</time>
      </trkpt>
      <trkpt lat="44.93947" lon="5.12599">
        <ele>399.79</ele>
        <time>2020-02-28T08:08:44.000Z</time>
      </trkpt>
      <trkpt lat="44.93954" lon="5.12603">
        <ele>400.03</ele>
        <time>2020-02-28T08:08:54.000Z</time>
      </trkpt>
      <trkpt lat="44.93969" lon="5.12609">
        <ele>400.28</ele>
        <time>2020-02-28T08:09:04.000Z</time>
      </trkpt>
      <trkpt lat="44.93983" lon="5.12614">
        <ele>400.4</ele>
        <time>2020-02-28T08:09:14.000Z</time>
      </trkpt>
      <trkpt lat="44.93989" lon="5.12618">
        <ele>400.61</ele>
        <time>2020-02-28T08:09:24.000Z</time>
      </trkpt>
      <trkpt lat="44.93994" lon="5.1263">
        <ele>401.61</ele>
        <time>2020-02-28T08:09:34.000Z</time>
      </trkpt>
      <trkpt lat="44.93995" lon="5.12649">
        <ele>403.59</ele>
        <time>2020-02-28T08:09:44.000Z</time>
      </trkpt>
      <trkpt lat="44.93996" lon="5.12657">
        <ele>404.58</ele>
        <time>2020-02-28T08:09:56.000Z</time>
      </trkpt>
      <trkpt lat="44.94001" lon="5.12667">
        <ele>406.04</ele>
        <time>2020-02-28T08:10:06.000Z</time>
      </trkpt>
      <trkpt lat="44.94014" lon="5.12672">
        <ele>406.8</ele>
        <time>2020-02-28T08:10:16.000Z</time>
      </trkpt>
      <trkpt lat="44.94023" lon="5.12678">
        <ele>407.82</ele>
        <time>2020-02-28T08:10:26.000Z</time>
      </trkpt>
      <trkpt lat="44.94033" lon="5.1268">
        <ele>408.2</ele>
        <time>2020-02-28T08:10:36.000Z</time>
      </trkpt>
      <trkpt lat="44.94044" lon="5.12685">
        <ele>409.26</ele>
        <time>2020-02-28T08:10:46.000Z</time>
      </trkpt>
      <trkpt lat="44.94051" lon="5.1269">
        <ele>410.65</ele>
        <time>2020-02-28T08:10:56.000Z</time>
      </trkpt>
      <trkpt lat="44.94054" lon="5.12698">
        <ele>412.44</ele>
        <time>2020-02-28T08:11:06.000Z</time>
      </trkpt>
      <trkpt lat="44.94059" lon="5.12705">
        <ele>414.52</ele>
        <time>2020-02-28T08:11:16.000Z</time>
      </trkpt>
      <trkpt lat="44.94063" lon="5.12709">
        <ele>415.98</ele>
        <time>2020-02-28T08:11:26.000Z</time>
      </trkpt>
      <trkpt lat="44.94072" lon="5.12712">
        <ele>417.19</ele>
        <time>2020-02-28T08:11:37.000Z</time>
      </trkpt>
      <trkpt lat="44.94079" lon="5.12717">
        <ele>419.12</ele>
        <time>2020-02-28T08:11:47.000Z</time>
      </trkpt>
      <trkpt lat="44.9409" lon="5.12718">
        <ele>420.24</ele>
        <time>2020-02-28T08:11:57.000Z</time>
      </trkpt>
      <trkpt lat="44.94103" lon="5.12722">
        <ele>422.63</ele>
        <time>2020-02-28T08:12:07.000Z</time>
      </trkpt>
      <trkpt lat="44.94108" lon="5.12726">
        <ele>424.27</ele>
        <time>2020-02-28T08:12:18.000Z</time>
      </trkpt>
      <trkpt lat="44.94117" lon="5.12731">
        <ele>426.43</ele>
        <time>2020-02-28T08:12:28.000Z</time>
      </trkpt>
      <trkpt lat="44.94128" lon="5.12736">
        <ele>428.64</ele>
        <time>2020-02-28T08:12:38.000Z</time>
      </trkpt>
      <trkpt lat="44.94135" lon="5.12739">
        <ele>429.9</ele>
        <time>2020-02-28T08:12:48.000Z</time>
      </trkpt>
      <trkpt lat="44.94144" lon="5.12741">
        <ele>430.91</ele>
        <time>2020-02-28T08:12:58.000Z</time>
      </trkpt>
      <trkpt lat="44.94153" lon="5.12746">
        <ele>432.12</ele>
        <time>2020-02-28T08:13:08.000Z</time>
      </trkpt>
      <trkpt lat="44.94161" lon="5.12753">
        <ele>433.7</ele>
        <time>2020-02-28T08:13:18.000Z</time>
      </trkpt>
      <trkpt lat="44.94169" lon="5.12757">
        <ele>434.34</ele>
        <time>2020-02-28T08:13:28.000Z</time>
      </trkpt>
      <trkpt lat="44.94175" lon="5.12768">
        <ele>435.9</ele>
        <time>2020-02-28T08:13:38.000Z</time>
      </trkpt>
      <trkpt lat="44.94179" lon="5.12778">
        <ele>437.36</ele>
        <time>2020-02-28T08:13:48.000Z</time>
      </trkpt>
      <trkpt lat="44.94183" lon="5.12785">
        <ele>438.26</ele>
        <time>2020-02-28T08:13:58.000Z</time>
      </trkpt>
      <trkpt lat="44.94187" lon="5.12789">
        <ele>438.45</ele>
        <time>2020-02-28T08:14:08.000Z</time>
      </trkpt>
      <trkpt lat="44.94201" lon="5.12796">
        <ele>437.84</ele>
        <time>2020-02-28T08:14:18.000Z</time>
      </trkpt>
      <trkpt lat="44.94206" lon="5.12806">
        <ele>438.68</ele>
        <time>2020-02-28T08:14:28.000Z</time>
      </trkpt>
      <trkpt lat="44.94208" lon="5.12818">
        <ele>440.36</ele>
        <time>2020-02-28T08:14:38.000Z</time>
      </trkpt>
      <trkpt lat="44.94215" lon="5.12829">
        <ele>441.03</ele>
        <time>2020-02-28T08:14:48.000Z</time>
      </trkpt>
      <trkpt lat="44.94226" lon="5.12837">
        <ele>440.18</ele>
        <time>2020-02-28T08:14:58.000Z</time>
      </trkpt>
      <trkpt lat="44.94236" lon="5.12846">
        <ele>440.07</ele>
        <time>2020-02-28T08:15:08.000Z</time>
      </trkpt>
      <trkpt lat="44.9424" lon="5.12859">
        <ele>441.88</ele>
        <time>2020-02-28T08:15:18.000Z</time>
      </trkpt>
      <trkpt lat="44.9425" lon="5.12871">
        <ele>441.93</ele>
        <time>2020-02-28T08:15:28.000Z</time>
      </trkpt>
      <trkpt lat="44.9425" lon="5.12884">
        <ele>444.9</ele>
        <time>2020-02-28T08:15:38.000Z</time>
      </trkpt>
      <trkpt lat="44.94258" lon="5.12898">
        <ele>445.96</ele>
        <time>2020-02-28T08:15:48.000Z</time>
      </trkpt>
      <trkpt lat="44.94264" lon="5.12913">
        <ele>447.59</ele>
        <time>2020-02-28T08:15:58.000Z</time>
      </trkpt>
      <trkpt lat="44.94269" lon="5.12926">
        <ele>448.74</ele>
        <time>2020-02-28T08:16:08.000Z</time>
      </trkpt>
      <trkpt lat="44.94266" lon="5.12933">
        <ele>451.22</ele>
        <time>2020-02-28T08:16:18.000Z</time>
      </trkpt>
      <trkpt lat="44.94266" lon="5.12943">
        <ele>453.24</ele>
        <time>2020-02-28T08:16:28.000Z</time>
      </trkpt>
      <trkpt lat="44.94277" lon="5.12954">
        <ele>452.28</ele>
        <time>2020-02-28T08:16:38.000Z</time>
      </trkpt>
      <trkpt lat="44.94272" lon="5.12969">
        <ele>456.96</ele>
        <time>2020-02-28T08:16:48.000Z</time>
      </trkpt>
      <trkpt lat="44.9428" lon="5.1298">
        <ele>457.31</ele>
        <time>2020-02-28T08:16:58.000Z</time>
      </trkpt>
      <trkpt lat="44.94287" lon="5.12991">
        <ele>457.69</ele>
        <time>2020-02-28T08:17:08.000Z</time>
      </trkpt>
      <trkpt lat="44.94293" lon="5.13005">
        <ele>458.99</ele>
        <time>2020-02-28T08:17:18.000Z</time>
      </trkpt>
      <trkpt lat="44.94299" lon="5.13012">
        <ele>459.02</ele>
        <time>2020-02-28T08:17:28.000Z</time>
      </trkpt>
      <trkpt lat="44.94295" lon="5.13024">
        <ele>463.24</ele>
        <time>2020-02-28T08:17:38.000Z</time>
      </trkpt>
      <trkpt lat="44.94303" lon="5.13034">
        <ele>463.04</ele>
        <time>2020-02-28T08:17:48.000Z</time>
      </trkpt>
      <trkpt lat="44.94313" lon="5.13046">
        <ele>462.45</ele>
        <time>2020-02-28T08:17:58.000Z</time>
      </trkpt>
      <trkpt lat="44.94314" lon="5.13058">
        <ele>464.77</ele>
        <time>2020-02-28T08:18:08.000Z</time>
      </trkpt>
      <trkpt lat="44.94311" lon="5.13071">
        <ele>468.59</ele>
        <time>2020-02-28T08:18:18.000Z</time>
      </trkpt>
      <trkpt lat="44.94314" lon="5.13085">
        <ele>469.86</ele>
        <time>2020-02-28T08:18:28.000Z</time>
      </trkpt>
      <trkpt lat="44.94318" lon="5.13092">
        <ele>469.28</ele>
        <time>2020-02-28T08:18:38.000Z</time>
      </trkpt>
      <trkpt lat="44.94319" lon="5.13103">
        <ele>470.28</ele>
        <time>2020-02-28T08:18:48.000Z</time>
      </trkpt>
      <trkpt lat="44.94321" lon="5.13116">
        <ele>470.76</ele>
        <time>2020-02-28T08:18:58.000Z</time>
      </trkpt>
      <trkpt lat="44.94323" lon="5.13126">
        <ele>470.72</ele>
        <time>2020-02-28T08:19:08.000Z</time>
      </trkpt>
      <trkpt lat="44.94321" lon="5.13142">
        <ele>473.6</ele>
        <time>2020-02-28T08:19:18.000Z</time>
      </trkpt>
      <trkpt lat="44.9432" lon="5.13152">
        <ele>475.52</ele>
        <time>2020-02-28T08:19:28.000Z</time>
      </trkpt>
      <trkpt lat="44.94317" lon="5.13159">
        <ele>478.33</ele>
        <time>2020-02-28T08:19:51.000Z</time>
      </trkpt>
      <trkpt lat="44.94319" lon="5.13167">
        <ele>478.3</ele>
        <time>2020-02-28T08:21:14.000Z</time>
      </trkpt>
      <trkpt lat="44.94316" lon="5.13179">
        <ele>481.24</ele>
        <time>2020-02-28T08:21:24.000Z</time>
      </trkpt>
      <trkpt lat="44.94308" lon="5.13192">
        <ele>486.31</ele>
        <time>2020-02-28T08:21:34.000Z</time>
      </trkpt>
      <trkpt lat="44.943" lon="5.13204">
        <ele>490.83</ele>
        <time>2020-02-28T08:21:44.000Z</time>
      </trkpt>
      <trkpt lat="44.94301" lon="5.13218">
        <ele>490.03</ele>
        <time>2020-02-28T08:21:54.000Z</time>
      </trkpt>
      <trkpt lat="44.94301" lon="5.13229">
        <ele>490.67</ele>
        <time>2020-02-28T08:22:04.000Z</time>
      </trkpt>
      <trkpt lat="44.94303" lon="5.13244">
        <ele>492.63</ele>
        <time>2020-02-28T08:22:14.000Z</time>
      </trkpt>
      <trkpt lat="44.94301" lon="5.13256">
        <ele>497</ele>
        <time>2020-02-28T08:22:24.000Z</time>
      </trkpt>
      <trkpt lat="44.94293" lon="5.13263">
        <ele>500.42</ele>
        <time>2020-02-28T08:22:34.000Z</time>
      </trkpt>
      <trkpt lat="44.94287" lon="5.13269">
        <ele>504.03</ele>
        <time>2020-02-28T08:22:44.000Z</time>
      </trkpt>
      <trkpt lat="44.94276" lon="5.13271">
        <ele>505.4</ele>
        <time>2020-02-28T08:22:54.000Z</time>
      </trkpt>
      <trkpt lat="44.94266" lon="5.1327">
        <ele>506.07</ele>
        <time>2020-02-28T08:23:04.000Z</time>
      </trkpt>
      <trkpt lat="44.94253" lon="5.1327">
        <ele>508.14</ele>
        <time>2020-02-28T08:23:14.000Z</time>
      </trkpt>
      <trkpt lat="44.94248" lon="5.13278">
        <ele>511.34</ele>
        <time>2020-02-28T08:23:24.000Z</time>
      </trkpt>
      <trkpt lat="44.9424" lon="5.13285">
        <ele>514.81</ele>
        <time>2020-02-28T08:23:34.000Z</time>
      </trkpt>
      <trkpt lat="44.94236" lon="5.13292">
        <ele>518.08</ele>
        <time>2020-02-28T08:23:44.000Z</time>
      </trkpt>
      <trkpt lat="44.94227" lon="5.13295">
        <ele>520.56</ele>
        <time>2020-02-28T08:23:54.000Z</time>
      </trkpt>
      <trkpt lat="44.9422" lon="5.13298">
        <ele>522.59</ele>
        <time>2020-02-28T08:24:04.000Z</time>
      </trkpt>
      <trkpt lat="44.94209" lon="5.13295">
        <ele>524.22</ele>
        <time>2020-02-28T08:24:14.000Z</time>
      </trkpt>
      <trkpt lat="44.942" lon="5.13295">
        <ele>526.28</ele>
        <time>2020-02-28T08:24:24.000Z</time>
      </trkpt>
      <trkpt lat="44.9419" lon="5.13288">
        <ele>527.87</ele>
        <time>2020-02-28T08:24:34.000Z</time>
      </trkpt>
      <trkpt lat="44.9418" lon="5.13291">
        <ele>530.59</ele>
        <time>2020-02-28T08:24:44.000Z</time>
      </trkpt>
      <trkpt lat="44.94173" lon="5.13292">
        <ele>532.23</ele>
        <time>2020-02-28T08:24:54.000Z</time>
      </trkpt>
      <trkpt lat="44.94167" lon="5.13298">
        <ele>533.59</ele>
        <time>2020-02-28T08:25:04.000Z</time>
      </trkpt>
      <trkpt lat="44.94162" lon="5.13302">
        <ele>534.75</ele>
        <time>2020-02-28T08:25:15.000Z</time>
      </trkpt>
      <trkpt lat="44.94154" lon="5.13302">
        <ele>536.17</ele>
        <time>2020-02-28T08:25:25.000Z</time>
      </trkpt>
      <trkpt lat="44.94147" lon="5.13302">
        <ele>537.42</ele>
        <time>2020-02-28T08:25:35.000Z</time>
      </trkpt>
      <trkpt lat="44.94137" lon="5.13302">
        <ele>539.57</ele>
        <time>2020-02-28T08:25:45.000Z</time>
      </trkpt>
      <trkpt lat="44.94128" lon="5.13301">
        <ele>541.03</ele>
        <time>2020-02-28T08:25:55.000Z</time>
      </trkpt>
      <trkpt lat="44.94121" lon="5.13299">
        <ele>542.03</ele>
        <time>2020-02-28T08:26:05.000Z</time>
      </trkpt>
      <trkpt lat="44.9411" lon="5.13296">
        <ele>543.58</ele>
        <time>2020-02-28T08:26:15.000Z</time>
      </trkpt>
      <trkpt lat="44.941" lon="5.13299">
        <ele>546.09</ele>
        <time>2020-02-28T08:26:25.000Z</time>
      </trkpt>
      <trkpt lat="44.94088" lon="5.13295">
        <ele>546.84</ele>
        <time>2020-02-28T08:26:35.000Z</time>
      </trkpt>
      <trkpt lat="44.94079" lon="5.13288">
        <ele>546.59</ele>
        <time>2020-02-28T08:26:45.000Z</time>
      </trkpt>
      <trkpt lat="44.9407" lon="5.13283">
        <ele>546.63</ele>
        <time>2020-02-28T08:26:55.000Z</time>
      </trkpt>
      <trkpt lat="44.94065" lon="5.13279">
        <ele>546.38</ele>
        <time>2020-02-28T08:27:05.000Z</time>
      </trkpt>
      <trkpt lat="44.94055" lon="5.13277">
        <ele>547.27</ele>
        <time>2020-02-28T08:27:15.000Z</time>
      </trkpt>
      <trkpt lat="44.94048" lon="5.1327">
        <ele>546.96</ele>
        <time>2020-02-28T08:27:25.000Z</time>
      </trkpt>
      <trkpt lat="44.94038" lon="5.13265">
        <ele>547.22</ele>
        <time>2020-02-28T08:27:35.000Z</time>
      </trkpt>
      <trkpt lat="44.94029" lon="5.13261">
        <ele>547.71</ele>
        <time>2020-02-28T08:27:45.000Z</time>
      </trkpt>
      <trkpt lat="44.9402" lon="5.13256">
        <ele>548.23</ele>
        <time>2020-02-28T08:27:55.000Z</time>
      </trkpt>
      <trkpt lat="44.9401" lon="5.13253">
        <ele>549.1</ele>
        <time>2020-02-28T08:28:05.000Z</time>
      </trkpt>
      <trkpt lat="44.94003" lon="5.13259">
        <ele>550.35</ele>
        <time>2020-02-28T08:28:15.000Z</time>
      </trkpt>
      <trkpt lat="44.93998" lon="5.13268">
        <ele>552.35</ele>
        <time>2020-02-28T08:28:25.000Z</time>
      </trkpt>
      <trkpt lat="44.93989" lon="5.13276">
        <ele>555.12</ele>
        <time>2020-02-28T08:28:35.000Z</time>
      </trkpt>
      <trkpt lat="44.93985" lon="5.13287">
        <ele>558.34</ele>
        <time>2020-02-28T08:28:45.000Z</time>
      </trkpt>
      <trkpt lat="44.93984" lon="5.13299">
        <ele>562.03</ele>
        <time>2020-02-28T08:28:55.000Z</time>
      </trkpt>
      <trkpt lat="44.93977" lon="5.13305">
        <ele>564.1</ele>
        <time>2020-02-28T08:29:05.000Z</time>
      </trkpt>
      <trkpt lat="44.9397" lon="5.13314">
        <ele>566.53</ele>
        <time>2020-02-28T08:29:15.000Z</time>
      </trkpt>
      <trkpt lat="44.93963" lon="5.1332">
        <ele>567.93</ele>
        <time>2020-02-28T08:29:25.000Z</time>
      </trkpt>
      <trkpt lat="44.93956" lon="5.13325">
        <ele>568.34</ele>
        <time>2020-02-28T08:29:35.000Z</time>
      </trkpt>
      <trkpt lat="44.93945" lon="5.13334">
        <ele>568.98</ele>
        <time>2020-02-28T08:29:45.000Z</time>
      </trkpt>
      <trkpt lat="44.93938" lon="5.13339">
        <ele>569.02</ele>
        <time>2020-02-28T08:29:57.000Z</time>
      </trkpt>
      <trkpt lat="44.9393" lon="5.13347">
        <ele>569.53</ele>
        <time>2020-02-28T08:30:07.000Z</time>
      </trkpt>
      <trkpt lat="44.93924" lon="5.13353">
        <ele>569.76</ele>
        <time>2020-02-28T08:30:17.000Z</time>
      </trkpt>
      <trkpt lat="44.93915" lon="5.13358">
        <ele>569.5</ele>
        <time>2020-02-28T08:30:27.000Z</time>
      </trkpt>
      <trkpt lat="44.93908" lon="5.13363">
        <ele>569.76</ele>
        <time>2020-02-28T08:30:37.000Z</time>
      </trkpt>
      <trkpt lat="44.939" lon="5.13371">
        <ele>570.17</ele>
        <time>2020-02-28T08:30:47.000Z</time>
      </trkpt>
      <trkpt lat="44.93892" lon="5.13375">
        <ele>569.97</ele>
        <time>2020-02-28T08:30:57.000Z</time>
      </trkpt>
      <trkpt lat="44.93884" lon="5.13382">
        <ele>570.25</ele>
        <time>2020-02-28T08:31:07.000Z</time>
      </trkpt>
      <trkpt lat="44.93876" lon="5.13391">
        <ele>570.68</ele>
        <time>2020-02-28T08:31:17.000Z</time>
      </trkpt>
      <trkpt lat="44.93868" lon="5.13399">
        <ele>571.1</ele>
        <time>2020-02-28T08:31:27.000Z</time>
      </trkpt>
      <trkpt lat="44.93861" lon="5.13408">
        <ele>571.55</ele>
        <time>2020-02-28T08:31:37.000Z</time>
      </trkpt>
      <trkpt lat="44.93853" lon="5.13418">
        <ele>571.87</ele>
        <time>2020-02-28T08:31:47.000Z</time>
      </trkpt>
      <trkpt lat="44.93845" lon="5.13428">
        <ele>572.07</ele>
        <time>2020-02-28T08:31:57.000Z</time>
      </trkpt>
      <trkpt lat="44.93841" lon="5.13438">
        <ele>573.1</ele>
        <time>2020-02-28T08:32:07.000Z</time>
      </trkpt>
      <trkpt lat="44.93838" lon="5.1345">
        <ele>574.61</ele>
        <time>2020-02-28T08:32:17.000Z</time>
      </trkpt>
      <trkpt lat="44.93837" lon="5.13465">
        <ele>577.01</ele>
        <time>2020-02-28T08:32:27.000Z</time>
      </trkpt>
      <trkpt lat="44.93838" lon="5.13478">
        <ele>579.19</ele>
        <time>2020-02-28T08:32:37.000Z</time>
      </trkpt>
      <trkpt lat="44.93838" lon="5.13492">
        <ele>581.09</ele>
        <time>2020-02-28T08:32:47.000Z</time>
      </trkpt>
      <trkpt lat="44.9384" lon="5.13504">
        <ele>583.08</ele>
        <time>2020-02-28T08:32:57.000Z</time>
      </trkpt>
      <trkpt lat="44.93841" lon="5.13517">
        <ele>584.71</ele>
        <time>2020-02-28T08:33:07.000Z</time>
      </trkpt>
      <trkpt lat="44.93843" lon="5.1353">
        <ele>586.51</ele>
        <time>2020-02-28T08:33:17.000Z</time>
      </trkpt>
      <trkpt lat="44.93845" lon="5.13543">
        <ele>587.87</ele>
        <time>2020-02-28T08:33:27.000Z</time>
      </trkpt>
      <trkpt lat="44.93848" lon="5.13556">
        <ele>589.61</ele>
        <time>2020-02-28T08:33:37.000Z</time>
      </trkpt>
      <trkpt lat="44.9385" lon="5.13567">
        <ele>590.61</ele>
        <time>2020-02-28T08:33:47.000Z</time>
      </trkpt>
      <trkpt lat="44.93853" lon="5.1358">
        <ele>592.32</ele>
        <time>2020-02-28T08:33:57.000Z</time>
      </trkpt>
      <trkpt lat="44.93856" lon="5.13591">
        <ele>593.44</ele>
        <time>2020-02-28T08:34:07.000Z</time>
      </trkpt>
      <trkpt lat="44.93858" lon="5.13601">
        <ele>594.33</ele>
        <time>2020-02-28T08:34:17.000Z</time>
      </trkpt>
      <trkpt lat="44.93861" lon="5.1361">
        <ele>595.19</ele>
        <time>2020-02-28T08:34:27.000Z</time>
      </trkpt>
      <trkpt lat="44.93861" lon="5.13619">
        <ele>595.01</ele>
        <time>2020-02-28T08:34:37.000Z</time>
      </trkpt>
      <trkpt lat="44.93862" lon="5.13631">
        <ele>595.04</ele>
        <time>2020-02-28T08:34:47.000Z</time>
      </trkpt>
      <trkpt lat="44.93864" lon="5.13645">
        <ele>595.48</ele>
        <time>2020-02-28T08:34:57.000Z</time>
      </trkpt>
      <trkpt lat="44.93865" lon="5.13654">
        <ele>595.43</ele>
        <time>2020-02-28T08:35:07.000Z</time>
      </trkpt>
      <trkpt lat="44.93866" lon="5.13667">
        <ele>595.08</ele>
        <time>2020-02-28T08:35:17.000Z</time>
      </trkpt>
      <trkpt lat="44.93867" lon="5.13682">
        <ele>593.99</ele>
        <time>2020-02-28T08:35:27.000Z</time>
      </trkpt>
      <trkpt lat="44.9387" lon="5.13695">
        <ele>593.96</ele>
        <time>2020-02-28T08:35:37.000Z</time>
      </trkpt>
      <trkpt lat="44.93873" lon="5.13708">
        <ele>594.16</ele>
        <time>2020-02-28T08:35:47.000Z</time>
      </trkpt>
      <trkpt lat="44.93878" lon="5.13722">
        <ele>595.34</ele>
        <time>2020-02-28T08:35:57.000Z</time>
      </trkpt>
      <trkpt lat="44.93882" lon="5.13733">
        <ele>596.9</ele>
        <time>2020-02-28T08:36:07.000Z</time>
      </trkpt>
      <trkpt lat="44.93885" lon="5.13744">
        <ele>597.9</ele>
        <time>2020-02-28T08:36:17.000Z</time>
      </trkpt>
      <trkpt lat="44.93888" lon="5.13756">
        <ele>599.22</ele>
        <time>2020-02-28T08:36:27.000Z</time>
      </trkpt>
      <trkpt lat="44.93891" lon="5.13767">
        <ele>600.93</ele>
        <time>2020-02-28T08:36:37.000Z</time>
      </trkpt>
      <trkpt lat="44.93895" lon="5.13776">
        <ele>603.28</ele>
        <time>2020-02-28T08:36:47.000Z</time>
      </trkpt>
      <trkpt lat="44.93901" lon="5.13789">
        <ele>606.5</ele>
        <time>2020-02-28T08:36:57.000Z</time>
      </trkpt>
      <trkpt lat="44.93901" lon="5.13801">
        <ele>606.77</ele>
        <time>2020-02-28T08:37:07.000Z</time>
      </trkpt>
      <trkpt lat="44.93902" lon="5.13817">
        <ele>608.28</ele>
        <time>2020-02-28T08:37:17.000Z</time>
      </trkpt>
      <trkpt lat="44.93901" lon="5.13832">
        <ele>609.23</ele>
        <time>2020-02-28T08:37:27.000Z</time>
      </trkpt>
      <trkpt lat="44.93898" lon="5.13845">
        <ele>609.81</ele>
        <time>2020-02-28T08:37:37.000Z</time>
      </trkpt>
      <trkpt lat="44.93897" lon="5.13858">
        <ele>611.45</ele>
        <time>2020-02-28T08:37:47.000Z</time>
      </trkpt>
      <trkpt lat="44.93893" lon="5.13871">
        <ele>612.61</ele>
        <time>2020-02-28T08:37:57.000Z</time>
      </trkpt>
      <trkpt lat="44.93892" lon="5.13884">
        <ele>615.02</ele>
        <time>2020-02-28T08:38:07.000Z</time>
      </trkpt>
      <trkpt lat="44.93886" lon="5.13893">
        <ele>615.41</ele>
        <time>2020-02-28T08:38:17.000Z</time>
      </trkpt>
      <trkpt lat="44.93882" lon="5.13903">
        <ele>616.72</ele>
        <time>2020-02-28T08:38:27.000Z</time>
      </trkpt>
      <trkpt lat="44.93877" lon="5.13912">
        <ele>617.79</ele>
        <time>2020-02-28T08:38:37.000Z</time>
      </trkpt>
      <trkpt lat="44.93872" lon="5.13921">
        <ele>619.1</ele>
        <time>2020-02-28T08:38:47.000Z</time>
      </trkpt>
      <trkpt lat="44.93866" lon="5.13924">
        <ele>618.45</ele>
        <time>2020-02-28T08:38:57.000Z</time>
      </trkpt>
      <trkpt lat="44.93862" lon="5.13928">
        <ele>618.5</ele>
        <time>2020-02-28T08:40:28.000Z</time>
      </trkpt>
      <trkpt lat="44.93857" lon="5.13937">
        <ele>619.73</ele>
        <time>2020-02-28T08:40:38.000Z</time>
      </trkpt>
      <trkpt lat="44.9385" lon="5.13943">
        <ele>619.52</ele>
        <time>2020-02-28T08:40:48.000Z</time>
      </trkpt>
      <trkpt lat="44.93843" lon="5.13951">
        <ele>620.23</ele>
        <time>2020-02-28T08:40:58.000Z</time>
      </trkpt>
      <trkpt lat="44.93837" lon="5.13959">
        <ele>620.93</ele>
        <time>2020-02-28T08:41:08.000Z</time>
      </trkpt>
      <trkpt lat="44.93831" lon="5.13964">
        <ele>620.07</ele>
        <time>2020-02-28T08:41:18.000Z</time>
      </trkpt>
      <trkpt lat="44.93827" lon="5.13977">
        <ele>622.31</ele>
        <time>2020-02-28T08:41:28.000Z</time>
      </trkpt>
      <trkpt lat="44.93825" lon="5.13988">
        <ele>624.45</ele>
        <time>2020-02-28T08:41:38.000Z</time>
      </trkpt>
      <trkpt lat="44.93823" lon="5.13999">
        <ele>626.68</ele>
        <time>2020-02-28T08:41:48.000Z</time>
      </trkpt>
      <trkpt lat="44.93823" lon="5.1401">
        <ele>629.76</ele>
        <time>2020-02-28T08:41:58.000Z</time>
      </trkpt>
      <trkpt lat="44.93824" lon="5.14025">
        <ele>634.18</ele>
        <time>2020-02-28T08:42:08.000Z</time>
      </trkpt>
      <trkpt lat="44.93822" lon="5.14036">
        <ele>635.96</ele>
        <time>2020-02-28T08:42:18.000Z</time>
      </trkpt>
      <trkpt lat="44.9382" lon="5.14049">
        <ele>637.77</ele>
        <time>2020-02-28T08:42:28.000Z</time>
      </trkpt>
      <trkpt lat="44.93814" lon="5.1406">
        <ele>636.15</ele>
        <time>2020-02-28T08:42:38.000Z</time>
      </trkpt>
      <trkpt lat="44.93812" lon="5.14072">
        <ele>637.1</ele>
        <time>2020-02-28T08:42:48.000Z</time>
      </trkpt>
      <trkpt lat="44.93811" lon="5.14084">
        <ele>638.34</ele>
        <time>2020-02-28T08:42:58.000Z</time>
      </trkpt>
      <trkpt lat="44.93808" lon="5.14093">
        <ele>637.42</ele>
        <time>2020-02-28T08:43:08.000Z</time>
      </trkpt>
      <trkpt lat="44.93806" lon="5.14105">
        <ele>637.03</ele>
        <time>2020-02-28T08:43:18.000Z</time>
      </trkpt>
      <trkpt lat="44.93806" lon="5.14119">
        <ele>638.65</ele>
        <time>2020-02-28T08:43:28.000Z</time>
      </trkpt>
      <trkpt lat="44.93805" lon="5.14132">
        <ele>638.81</ele>
        <time>2020-02-28T08:43:38.000Z</time>
      </trkpt>
      <trkpt lat="44.93806" lon="5.14145">
        <ele>640.72</ele>
        <time>2020-02-28T08:43:48.000Z</time>
      </trkpt>
      <trkpt lat="44.93806" lon="5.14157">
        <ele>641.4</ele>
        <time>2020-02-28T08:43:58.000Z</time>
      </trkpt>
      <trkpt lat="44.93807" lon="5.1417">
        <ele>643.75</ele>
        <time>2020-02-28T08:44:08.000Z</time>
      </trkpt>
      <trkpt lat="44.93809" lon="5.14183">
        <ele>645.68</ele>
        <time>2020-02-28T08:44:18.000Z</time>
      </trkpt>
      <trkpt lat="44.93811" lon="5.14195">
        <ele>647.8</ele>
        <time>2020-02-28T08:44:28.000Z</time>
      </trkpt>
      <trkpt lat="44.93812" lon="5.14209">
        <ele>648.56</ele>
        <time>2020-02-28T08:44:38.000Z</time>
      </trkpt>
      <trkpt lat="44.93811" lon="5.14224">
        <ele>648.89</ele>
        <time>2020-02-28T08:44:48.000Z</time>
      </trkpt>
      <trkpt lat="44.9381" lon="5.14237">
        <ele>649.29</ele>
        <time>2020-02-28T08:44:58.000Z</time>
      </trkpt>
      <trkpt lat="44.93811" lon="5.1425">
        <ele>651.46</ele>
        <time>2020-02-28T08:45:08.000Z</time>
      </trkpt>
      <trkpt lat="44.93812" lon="5.14264">
        <ele>654.69</ele>
        <time>2020-02-28T08:45:18.000Z</time>
      </trkpt>
      <trkpt lat="44.93808" lon="5.14276">
        <ele>655.46</ele>
        <time>2020-02-28T08:45:28.000Z</time>
      </trkpt>
      <trkpt lat="44.93802" lon="5.14287">
        <ele>655.29</ele>
        <time>2020-02-28T08:45:38.000Z</time>
      </trkpt>
      <trkpt lat="44.93796" lon="5.14298">
        <ele>655.61</ele>
        <time>2020-02-28T08:45:48.000Z</time>
      </trkpt>
      <trkpt lat="44.93786" lon="5.14304">
        <ele>651.65</ele>
        <time>2020-02-28T08:45:58.000Z</time>
      </trkpt>
      <trkpt lat="44.93776" lon="5.14308">
        <ele>648.16</ele>
        <time>2020-02-28T08:46:08.000Z</time>
      </trkpt>
      <trkpt lat="44.93769" lon="5.14318">
        <ele>648.1</ele>
        <time>2020-02-28T08:46:18.000Z</time>
      </trkpt>
      <trkpt lat="44.93762" lon="5.14331">
        <ele>649.24</ele>
        <time>2020-02-28T08:46:28.000Z</time>
      </trkpt>
      <trkpt lat="44.93756" lon="5.14344">
        <ele>650.18</ele>
        <time>2020-02-28T08:46:38.000Z</time>
      </trkpt>
      <trkpt lat="44.93753" lon="5.14358">
        <ele>651.65</ele>
        <time>2020-02-28T08:46:48.000Z</time>
      </trkpt>
      <trkpt lat="44.9375" lon="5.14371">
        <ele>652.52</ele>
        <time>2020-02-28T08:46:58.000Z</time>
      </trkpt>
      <trkpt lat="44.93748" lon="5.14383">
        <ele>654.11</ele>
        <time>2020-02-28T08:47:08.000Z</time>
      </trkpt>
      <trkpt lat="44.93749" lon="5.14395">
        <ele>657.42</ele>
        <time>2020-02-28T08:47:18.000Z</time>
      </trkpt>
      <trkpt lat="44.93746" lon="5.14406">
        <ele>658.47</ele>
        <time>2020-02-28T08:47:28.000Z</time>
      </trkpt>
      <trkpt lat="44.9374" lon="5.14413">
        <ele>658.13</ele>
        <time>2020-02-28T08:47:38.000Z</time>
      </trkpt>
      <trkpt lat="44.93732" lon="5.14418">
        <ele>656.46</ele>
        <time>2020-02-28T08:47:48.000Z</time>
      </trkpt>
      <trkpt lat="44.93724" lon="5.14427">
        <ele>657.2</ele>
        <time>2020-02-28T08:47:58.000Z</time>
      </trkpt>
      <trkpt lat="44.93716" lon="5.14435">
        <ele>657.78</ele>
        <time>2020-02-28T08:48:08.000Z</time>
      </trkpt>
      <trkpt lat="44.93708" lon="5.14446">
        <ele>660.1</ele>
        <time>2020-02-28T08:48:18.000Z</time>
      </trkpt>
      <trkpt lat="44.93701" lon="5.14455">
        <ele>661.59</ele>
        <time>2020-02-28T08:48:28.000Z</time>
      </trkpt>
      <trkpt lat="44.93694" lon="5.14461">
        <ele>662.22</ele>
        <time>2020-02-28T08:48:38.000Z</time>
      </trkpt>
      <trkpt lat="44.93687" lon="5.1447">
        <ele>663.25</ele>
        <time>2020-02-28T08:48:48.000Z</time>
      </trkpt>
      <trkpt lat="44.9368" lon="5.14478">
        <ele>664.19</ele>
        <time>2020-02-28T08:48:58.000Z</time>
      </trkpt>
      <trkpt lat="44.93675" lon="5.14485">
        <ele>665.29</ele>
        <time>2020-02-28T08:49:08.000Z</time>
      </trkpt>
      <trkpt lat="44.93669" lon="5.14498">
        <ele>667.76</ele>
        <time>2020-02-28T08:49:18.000Z</time>
      </trkpt>
      <trkpt lat="44.93663" lon="5.1451">
        <ele>670.37</ele>
        <time>2020-02-28T08:49:28.000Z</time>
      </trkpt>
      <trkpt lat="44.93659" lon="5.14524">
        <ele>673.8</ele>
        <time>2020-02-28T08:49:38.000Z</time>
      </trkpt>
      <trkpt lat="44.93655" lon="5.14536">
        <ele>676.75</ele>
        <time>2020-02-28T08:49:48.000Z</time>
      </trkpt>
      <trkpt lat="44.9365" lon="5.14546">
        <ele>679.29</ele>
        <time>2020-02-28T08:49:58.000Z</time>
      </trkpt>
      <trkpt lat="44.93648" lon="5.14557">
        <ele>682.37</ele>
        <time>2020-02-28T08:50:08.000Z</time>
      </trkpt>
      <trkpt lat="44.9364" lon="5.1456">
        <ele>683.4</ele>
        <time>2020-02-28T08:50:18.000Z</time>
      </trkpt>
      <trkpt lat="44.93632" lon="5.14563">
        <ele>684.82</ele>
        <time>2020-02-28T08:50:28.000Z</time>
      </trkpt>
      <trkpt lat="44.93625" lon="5.14565">
        <ele>686.29</ele>
        <time>2020-02-28T08:50:38.000Z</time>
      </trkpt>
      <trkpt lat="44.93618" lon="5.14566">
        <ele>687.43</ele>
        <time>2020-02-28T08:50:48.000Z</time>
      </trkpt>
      <trkpt lat="44.9361" lon="5.14566">
        <ele>688.3</ele>
        <time>2020-02-28T08:50:58.000Z</time>
      </trkpt>
      <trkpt lat="44.93604" lon="5.14564">
        <ele>688.75</ele>
        <time>2020-02-28T08:51:12.000Z</time>
      </trkpt>
      <trkpt lat="44.93598" lon="5.14567">
        <ele>690.14</ele>
        <time>2020-02-28T08:51:27.000Z</time>
      </trkpt>
      <trkpt lat="44.9359" lon="5.14565">
        <ele>690.38</ele>
        <time>2020-02-28T08:51:37.000Z</time>
      </trkpt>
      <trkpt lat="44.93583" lon="5.14569">
        <ele>691.67</ele>
        <time>2020-02-28T08:51:47.000Z</time>
      </trkpt>
      <trkpt lat="44.93577" lon="5.1457">
        <ele>692.01</ele>
        <time>2020-02-28T08:52:00.000Z</time>
      </trkpt>
      <trkpt lat="44.93567" lon="5.14574">
        <ele>693.45</ele>
        <time>2020-02-28T08:52:10.000Z</time>
      </trkpt>
      <trkpt lat="44.9356" lon="5.14578">
        <ele>694.4</ele>
        <time>2020-02-28T08:52:20.000Z</time>
      </trkpt>
      <trkpt lat="44.93552" lon="5.14578">
        <ele>694.33</ele>
        <time>2020-02-28T08:52:30.000Z</time>
      </trkpt>
      <trkpt lat="44.93542" lon="5.14581">
        <ele>694.83</ele>
        <time>2020-02-28T08:52:40.000Z</time>
      </trkpt>
      <trkpt lat="44.93535" lon="5.14585">
        <ele>695.42</ele>
        <time>2020-02-28T08:52:50.000Z</time>
      </trkpt>
      <trkpt lat="44.93526" lon="5.1459">
        <ele>696.51</ele>
        <time>2020-02-28T08:53:00.000Z</time>
      </trkpt>
      <trkpt lat="44.93515" lon="5.14592">
        <ele>696.63</ele>
        <time>2020-02-28T08:53:10.000Z</time>
      </trkpt>
      <trkpt lat="44.93505" lon="5.14597">
        <ele>697.53</ele>
        <time>2020-02-28T08:53:20.000Z</time>
      </trkpt>
      <trkpt lat="44.93499" lon="5.14601">
        <ele>698.11</ele>
        <time>2020-02-28T08:53:30.000Z</time>
      </trkpt>
      <trkpt lat="44.93491" lon="5.14601">
        <ele>697.96</ele>
        <time>2020-02-28T08:53:40.000Z</time>
      </trkpt>
      <trkpt lat="44.93483" lon="5.14605">
        <ele>698.77</ele>
        <time>2020-02-28T08:53:50.000Z</time>
      </trkpt>
      <trkpt lat="44.93474" lon="5.14609">
        <ele>699.37</ele>
        <time>2020-02-28T08:54:00.000Z</time>
      </trkpt>
      <trkpt lat="44.93466" lon="5.14612">
        <ele>699.9</ele>
        <time>2020-02-28T08:54:10.000Z</time>
      </trkpt>
      <trkpt lat="44.93456" lon="5.14619">
        <ele>700.61</ele>
        <time>2020-02-28T08:54:20.000Z</time>
      </trkpt>
      <trkpt lat="44.93446" lon="5.14624">
        <ele>700.77</ele>
        <time>2020-02-28T08:54:30.000Z</time>
      </trkpt>
      <trkpt lat="44.93439" lon="5.14625">
        <ele>700.56</ele>
        <time>2020-02-28T08:54:40.000Z</time>
      </trkpt>
      <trkpt lat="44.93433" lon="5.14633">
        <ele>701.03</ele>
        <time>2020-02-28T08:54:50.000Z</time>
      </trkpt>
      <trkpt lat="44.93427" lon="5.14637">
        <ele>701.06</ele>
        <time>2020-02-28T08:55:01.000Z</time>
      </trkpt>
      <trkpt lat="44.93421" lon="5.14642">
        <ele>701.25</ele>
        <time>2020-02-28T08:55:11.000Z</time>
      </trkpt>
      <trkpt lat="44.93414" lon="5.14646">
        <ele>701.34</ele>
        <time>2020-02-28T08:55:21.000Z</time>
      </trkpt>
      <trkpt lat="44.93408" lon="5.14649">
        <ele>701.68</ele>
        <time>2020-02-28T08:55:31.000Z</time>
      </trkpt>
      <trkpt lat="44.93402" lon="5.14654">
        <ele>702.35</ele>
        <time>2020-02-28T08:55:41.000Z</time>
      </trkpt>
      <trkpt lat="44.93395" lon="5.1466">
        <ele>703.51</ele>
        <time>2020-02-28T08:55:51.000Z</time>
      </trkpt>
      <trkpt lat="44.93387" lon="5.14667">
        <ele>705.42</ele>
        <time>2020-02-28T08:56:01.000Z</time>
      </trkpt>
      <trkpt lat="44.93379" lon="5.14673">
        <ele>707.42</ele>
        <time>2020-02-28T08:56:11.000Z</time>
      </trkpt>
      <trkpt lat="44.93375" lon="5.1468">
        <ele>709.41</ele>
        <time>2020-02-28T08:56:21.000Z</time>
      </trkpt>
      <trkpt lat="44.93366" lon="5.14682">
        <ele>711.9</ele>
        <time>2020-02-28T08:56:31.000Z</time>
      </trkpt>
      <trkpt lat="44.93359" lon="5.14685">
        <ele>714.39</ele>
        <time>2020-02-28T08:56:41.000Z</time>
      </trkpt>
      <trkpt lat="44.93352" lon="5.1469">
        <ele>717.29</ele>
        <time>2020-02-28T08:56:51.000Z</time>
      </trkpt>
      <trkpt lat="44.93345" lon="5.14694">
        <ele>720.09</ele>
        <time>2020-02-28T08:57:01.000Z</time>
      </trkpt>
      <trkpt lat="44.93339" lon="5.14699">
        <ele>722.65</ele>
        <time>2020-02-28T08:57:11.000Z</time>
      </trkpt>
      <trkpt lat="44.9333" lon="5.14706">
        <ele>726.36</ele>
        <time>2020-02-28T08:57:21.000Z</time>
      </trkpt>
      <trkpt lat="44.93325" lon="5.1471">
        <ele>727.98</ele>
        <time>2020-02-28T08:57:32.000Z</time>
      </trkpt>
      <trkpt lat="44.93314" lon="5.14717">
        <ele>731.03</ele>
        <time>2020-02-28T08:57:42.000Z</time>
      </trkpt>
      <trkpt lat="44.93309" lon="5.1472">
        <ele>732.22</ele>
        <time>2020-02-28T08:57:54.000Z</time>
      </trkpt>
      <trkpt lat="44.93303" lon="5.14719">
        <ele>732.15</ele>
        <time>2020-02-28T08:58:04.000Z</time>
      </trkpt>
      <trkpt lat="44.93296" lon="5.1472">
        <ele>732.39</ele>
        <time>2020-02-28T08:58:14.000Z</time>
      </trkpt>
      <trkpt lat="44.93288" lon="5.14723">
        <ele>733.13</ele>
        <time>2020-02-28T08:58:24.000Z</time>
      </trkpt>
      <trkpt lat="44.93276" lon="5.14723">
        <ele>732.56</ele>
        <time>2020-02-28T08:58:34.000Z</time>
      </trkpt>
      <trkpt lat="44.93267" lon="5.14722">
        <ele>732.06</ele>
        <time>2020-02-28T08:58:44.000Z</time>
      </trkpt>
      <trkpt lat="44.93257" lon="5.14723">
        <ele>731.97</ele>
        <time>2020-02-28T08:58:54.000Z</time>
      </trkpt>
      <trkpt lat="44.93247" lon="5.14726">
        <ele>732.9</ele>
        <time>2020-02-28T08:59:04.000Z</time>
      </trkpt>
      <trkpt lat="44.93239" lon="5.14727">
        <ele>733.43</ele>
        <time>2020-02-28T08:59:14.000Z</time>
      </trkpt>
      <trkpt lat="44.93229" lon="5.1473">
        <ele>734.45</ele>
        <time>2020-02-28T08:59:24.000Z</time>
      </trkpt>
      <trkpt lat="44.93222" lon="5.14732">
        <ele>735.04</ele>
        <time>2020-02-28T08:59:34.000Z</time>
      </trkpt>
      <trkpt lat="44.93212" lon="5.14736">
        <ele>736.19</ele>
        <time>2020-02-28T08:59:44.000Z</time>
      </trkpt>
      <trkpt lat="44.932" lon="5.1474">
        <ele>737.18</ele>
        <time>2020-02-28T08:59:54.000Z</time>
      </trkpt>
      <trkpt lat="44.93188" lon="5.14744">
        <ele>737.97</ele>
        <time>2020-02-28T09:00:04.000Z</time>
      </trkpt>
      <trkpt lat="44.9318" lon="5.14747">
        <ele>738.2</ele>
        <time>2020-02-28T09:00:14.000Z</time>
      </trkpt>
      <trkpt lat="44.93172" lon="5.1475">
        <ele>738.33</ele>
        <time>2020-02-28T09:00:24.000Z</time>
      </trkpt>
      <trkpt lat="44.93162" lon="5.14754">
        <ele>738.39</ele>
        <time>2020-02-28T09:00:34.000Z</time>
      </trkpt>
      <trkpt lat="44.93155" lon="5.14758">
        <ele>738.54</ele>
        <time>2020-02-28T09:00:44.000Z</time>
      </trkpt>
      <trkpt lat="44.93151" lon="5.14764">
        <ele>739.36</ele>
        <time>2020-02-28T09:00:55.000Z</time>
      </trkpt>
      <trkpt lat="44.93146" lon="5.14772">
        <ele>740.3</ele>
        <time>2020-02-28T09:01:05.000Z</time>
      </trkpt>
      <trkpt lat="44.93142" lon="5.14781">
        <ele>741.47</ele>
        <time>2020-02-28T09:01:15.000Z</time>
      </trkpt>
      <trkpt lat="44.93137" lon="5.14791">
        <ele>742.5</ele>
        <time>2020-02-28T09:01:25.000Z</time>
      </trkpt>
      <trkpt lat="44.93131" lon="5.14803">
        <ele>743.43</ele>
        <time>2020-02-28T09:01:35.000Z</time>
      </trkpt>
      <trkpt lat="44.93125" lon="5.14814">
        <ele>743.97</ele>
        <time>2020-02-28T09:01:45.000Z</time>
      </trkpt>
      <trkpt lat="44.93119" lon="5.14825">
        <ele>744.33</ele>
        <time>2020-02-28T09:01:55.000Z</time>
      </trkpt>
      <trkpt lat="44.93112" lon="5.14837">
        <ele>744.63</ele>
        <time>2020-02-28T09:02:05.000Z</time>
      </trkpt>
      <trkpt lat="44.93105" lon="5.14846">
        <ele>744.77</ele>
        <time>2020-02-28T09:02:15.000Z</time>
      </trkpt>
      <trkpt lat="44.93098" lon="5.14857">
        <ele>745.04</ele>
        <time>2020-02-28T09:02:25.000Z</time>
      </trkpt>
      <trkpt lat="44.9309" lon="5.14869">
        <ele>745.53</ele>
        <time>2020-02-28T09:02:35.000Z</time>
      </trkpt>
      <trkpt lat="44.93082" lon="5.14879">
        <ele>745.62</ele>
        <time>2020-02-28T09:02:45.000Z</time>
      </trkpt>
      <trkpt lat="44.93073" lon="5.14887">
        <ele>745.53</ele>
        <time>2020-02-28T09:02:55.000Z</time>
      </trkpt>
      <trkpt lat="44.93066" lon="5.14899">
        <ele>745.91</ele>
        <time>2020-02-28T09:03:05.000Z</time>
      </trkpt>
      <trkpt lat="44.93059" lon="5.1491">
        <ele>746.06</ele>
        <time>2020-02-28T09:03:15.000Z</time>
      </trkpt>
      <trkpt lat="44.93051" lon="5.14922">
        <ele>745.78</ele>
        <time>2020-02-28T09:03:25.000Z</time>
      </trkpt>
      <trkpt lat="44.93044" lon="5.14934">
        <ele>745.31</ele>
        <time>2020-02-28T09:03:35.000Z</time>
      </trkpt>
      <trkpt lat="44.93038" lon="5.14943">
        <ele>744.8</ele>
        <time>2020-02-28T09:03:45.000Z</time>
      </trkpt>
      <trkpt lat="44.93031" lon="5.14953">
        <ele>744.11</ele>
        <time>2020-02-28T09:03:55.000Z</time>
      </trkpt>
      <trkpt lat="44.93024" lon="5.14963">
        <ele>743.37</ele>
        <time>2020-02-28T09:04:05.000Z</time>
      </trkpt>
      <trkpt lat="44.93017" lon="5.1497">
        <ele>742.72</ele>
        <time>2020-02-28T09:04:15.000Z</time>
      </trkpt>
      <trkpt lat="44.93009" lon="5.14979">
        <ele>741.87</ele>
        <time>2020-02-28T09:04:25.000Z</time>
      </trkpt>
      <trkpt lat="44.93001" lon="5.14986">
        <ele>740.97</ele>
        <time>2020-02-28T09:04:35.000Z</time>
      </trkpt>
      <trkpt lat="44.92994" lon="5.14994">
        <ele>740</ele>
        <time>2020-02-28T09:04:45.000Z</time>
      </trkpt>
      <trkpt lat="44.92984" lon="5.15003">
        <ele>738.68</ele>
        <time>2020-02-28T09:04:55.000Z</time>
      </trkpt>
      <trkpt lat="44.92978" lon="5.15012">
        <ele>737.78</ele>
        <time>2020-02-28T09:05:05.000Z</time>
      </trkpt>
      <trkpt lat="44.9297" lon="5.15021">
        <ele>737.03</ele>
        <time>2020-02-28T09:05:15.000Z</time>
      </trkpt>
      <trkpt lat="44.92963" lon="5.15027">
        <ele>736.73</ele>
        <time>2020-02-28T09:05:25.000Z</time>
      </trkpt>
      <trkpt lat="44.92956" lon="5.15036">
        <ele>737.02</ele>
        <time>2020-02-28T09:05:35.000Z</time>
      </trkpt>
      <trkpt lat="44.92947" lon="5.15047">
        <ele>738.1</ele>
        <time>2020-02-28T09:05:45.000Z</time>
      </trkpt>
      <trkpt lat="44.92938" lon="5.15054">
        <ele>739.5</ele>
        <time>2020-02-28T09:08:18.000Z</time>
      </trkpt>
      <trkpt lat="44.92933" lon="5.15058">
        <ele>740.45</ele>
        <time>2020-02-28T09:08:28.000Z</time>
      </trkpt>
      <trkpt lat="44.92925" lon="5.15065">
        <ele>741.98</ele>
        <time>2020-02-28T09:08:38.000Z</time>
      </trkpt>
      <trkpt lat="44.92919" lon="5.15069">
        <ele>743.02</ele>
        <time>2020-02-28T09:08:48.000Z</time>
      </trkpt>
      <trkpt lat="44.92913" lon="5.15077">
        <ele>744.44</ele>
        <time>2020-02-28T09:08:58.000Z</time>
      </trkpt>
      <trkpt lat="44.92907" lon="5.15081">
        <ele>745.24</ele>
        <time>2020-02-28T09:09:08.000Z</time>
      </trkpt>
      <trkpt lat="44.929" lon="5.15084">
        <ele>745.73</ele>
        <time>2020-02-28T09:09:18.000Z</time>
      </trkpt>
      <trkpt lat="44.92895" lon="5.15088">
        <ele>746.19</ele>
        <time>2020-02-28T09:09:30.000Z</time>
      </trkpt>
      <trkpt lat="44.9289" lon="5.15093">
        <ele>746.89</ele>
        <time>2020-02-28T09:09:42.000Z</time>
      </trkpt>
      <trkpt lat="44.92887" lon="5.15099">
        <ele>747.8</ele>
        <time>2020-02-28T09:09:53.000Z</time>
      </trkpt>
      <trkpt lat="44.92883" lon="5.15106">
        <ele>748.83</ele>
        <time>2020-02-28T09:10:03.000Z</time>
      </trkpt>
      <trkpt lat="44.92879" lon="5.15114">
        <ele>750.21</ele>
        <time>2020-02-28T09:10:13.000Z</time>
      </trkpt>
      <trkpt lat="44.92873" lon="5.15124">
        <ele>751.98</ele>
        <time>2020-02-28T09:10:23.000Z</time>
      </trkpt>
      <trkpt lat="44.92869" lon="5.15131">
        <ele>753.31</ele>
        <time>2020-02-28T09:10:34.000Z</time>
      </trkpt>
      <trkpt lat="44.92862" lon="5.15138">
        <ele>755.14</ele>
        <time>2020-02-28T09:10:44.000Z</time>
      </trkpt>
      <trkpt lat="44.92857" lon="5.15151">
        <ele>757.33</ele>
        <time>2020-02-28T09:10:54.000Z</time>
      </trkpt>
      <trkpt lat="44.9285" lon="5.15156">
        <ele>758.68</ele>
        <time>2020-02-28T09:11:04.000Z</time>
      </trkpt>
      <trkpt lat="44.9284" lon="5.15167">
        <ele>760.59</ele>
        <time>2020-02-28T09:11:14.000Z</time>
      </trkpt>
      <trkpt lat="44.92835" lon="5.15173">
        <ele>761.22</ele>
        <time>2020-02-28T09:11:24.000Z</time>
      </trkpt>
      <trkpt lat="44.9283" lon="5.1518">
        <ele>761.61</ele>
        <time>2020-02-28T09:11:34.000Z</time>
      </trkpt>
      <trkpt lat="44.92825" lon="5.15188">
        <ele>761.67</ele>
        <time>2020-02-28T09:11:44.000Z</time>
      </trkpt>
      <trkpt lat="44.92821" lon="5.15199">
        <ele>761.38</ele>
        <time>2020-02-28T09:11:54.000Z</time>
      </trkpt>
      <trkpt lat="44.92817" lon="5.15208">
        <ele>761.17</ele>
        <time>2020-02-28T09:12:04.000Z</time>
      </trkpt>
      <trkpt lat="44.92811" lon="5.15212">
        <ele>761.63</ele>
        <time>2020-02-28T09:12:14.000Z</time>
      </trkpt>
      <trkpt lat="44.92806" lon="5.15217">
        <ele>762.01</ele>
        <time>2020-02-28T09:12:24.000Z</time>
      </trkpt>
      <trkpt lat="44.92799" lon="5.15226">
        <ele>763.23</ele>
        <time>2020-02-28T09:12:34.000Z</time>
      </trkpt>
      <trkpt lat="44.92796" lon="5.15233">
        <ele>764.12</ele>
        <time>2020-02-28T09:12:45.000Z</time>
      </trkpt>
      <trkpt lat="44.92791" lon="5.15237">
        <ele>765.49</ele>
        <time>2020-02-28T09:12:56.000Z</time>
      </trkpt>
      <trkpt lat="44.92785" lon="5.15243">
        <ele>767.53</ele>
        <time>2020-02-28T09:13:06.000Z</time>
      </trkpt>
      <trkpt lat="44.92778" lon="5.1525">
        <ele>770.49</ele>
        <time>2020-02-28T09:13:16.000Z</time>
      </trkpt>
      <trkpt lat="44.92774" lon="5.15258">
        <ele>772.92</ele>
        <time>2020-02-28T09:13:26.000Z</time>
      </trkpt>
      <trkpt lat="44.92768" lon="5.15261">
        <ele>775.5</ele>
        <time>2020-02-28T09:13:36.000Z</time>
      </trkpt>
      <trkpt lat="44.92762" lon="5.15262">
        <ele>777.37</ele>
        <time>2020-02-28T09:13:51.000Z</time>
      </trkpt>
      <trkpt lat="44.92751" lon="5.15266">
        <ele>781.18</ele>
        <time>2020-02-28T09:14:01.000Z</time>
      </trkpt>
      <trkpt lat="44.92743" lon="5.15269">
        <ele>783.56</ele>
        <time>2020-02-28T09:14:11.000Z</time>
      </trkpt>
      <trkpt lat="44.92738" lon="5.15273">
        <ele>785.65</ele>
        <time>2020-02-28T09:14:22.000Z</time>
      </trkpt>
      <trkpt lat="44.92732" lon="5.15277">
        <ele>787.76</ele>
        <time>2020-02-28T09:14:32.000Z</time>
      </trkpt>
      <trkpt lat="44.92723" lon="5.15281">
        <ele>790.1</ele>
        <time>2020-02-28T09:14:42.000Z</time>
      </trkpt>
      <trkpt lat="44.92715" lon="5.15285">
        <ele>792.19</ele>
        <time>2020-02-28T09:14:52.000Z</time>
      </trkpt>
      <trkpt lat="44.92707" lon="5.15291">
        <ele>794.4</ele>
        <time>2020-02-28T09:15:02.000Z</time>
      </trkpt>
      <trkpt lat="44.92696" lon="5.15297">
        <ele>796.89</ele>
        <time>2020-02-28T09:15:12.000Z</time>
      </trkpt>
      <trkpt lat="44.9269" lon="5.153">
        <ele>797.95</ele>
        <time>2020-02-28T09:15:22.000Z</time>
      </trkpt>
      <trkpt lat="44.92683" lon="5.15304">
        <ele>799.09</ele>
        <time>2020-02-28T09:15:32.000Z</time>
      </trkpt>
      <trkpt lat="44.92677" lon="5.15305">
        <ele>799.74</ele>
        <time>2020-02-28T09:15:42.000Z</time>
      </trkpt>
      <trkpt lat="44.92671" lon="5.15308">
        <ele>800.54</ele>
        <time>2020-02-28T09:15:53.000Z</time>
      </trkpt>
      <trkpt lat="44.92664" lon="5.15311">
        <ele>801.56</ele>
        <time>2020-02-28T09:16:03.000Z</time>
      </trkpt>
      <trkpt lat="44.92659" lon="5.15317">
        <ele>803.16</ele>
        <time>2020-02-28T09:16:25.000Z</time>
      </trkpt>
      <trkpt lat="44.92651" lon="5.15322">
        <ele>804.59</ele>
        <time>2020-02-28T09:16:35.000Z</time>
      </trkpt>
      <trkpt lat="44.92643" lon="5.15323">
        <ele>805.06</ele>
        <time>2020-02-28T09:16:45.000Z</time>
      </trkpt>
      <trkpt lat="44.92635" lon="5.15323">
        <ele>805.23</ele>
        <time>2020-02-28T09:16:55.000Z</time>
      </trkpt>
      <trkpt lat="44.9263" lon="5.15321">
        <ele>804.92</ele>
        <time>2020-02-28T09:17:05.000Z</time>
      </trkpt>
      <trkpt lat="44.92625" lon="5.15324">
        <ele>805.42</ele>
        <time>2020-02-28T09:17:15.000Z</time>
      </trkpt>
      <trkpt lat="44.9262" lon="5.15328">
        <ele>805.98</ele>
        <time>2020-02-28T09:17:27.000Z</time>
      </trkpt>
      <trkpt lat="44.9262" lon="5.15336">
        <ele>806.65</ele>
        <time>2020-02-28T09:23:06.000Z</time>
      </trkpt>
      <trkpt lat="44.92614" lon="5.15334">
        <ele>806.37</ele>
        <time>2020-02-28T09:24:19.000Z</time>
      </trkpt>
      <trkpt lat="44.92609" lon="5.15336">
        <ele>806.23</ele>
        <time>2020-02-28T09:24:33.000Z</time>
      </trkpt>
      <trkpt lat="44.92605" lon="5.15343">
        <ele>806.36</ele>
        <time>2020-02-28T09:24:43.000Z</time>
      </trkpt>
      <trkpt lat="44.926" lon="5.15348">
        <ele>806.21</ele>
        <time>2020-02-28T09:24:54.000Z</time>
      </trkpt>
      <trkpt lat="44.92595" lon="5.15353">
        <ele>805.93</ele>
        <time>2020-02-28T09:25:04.000Z</time>
      </trkpt>
      <trkpt lat="44.92587" lon="5.15362">
        <ele>805.08</ele>
        <time>2020-02-28T09:25:14.000Z</time>
      </trkpt>
      <trkpt lat="44.9258" lon="5.15369">
        <ele>804.03</ele>
        <time>2020-02-28T09:25:24.000Z</time>
      </trkpt>
      <trkpt lat="44.92576" lon="5.15374">
        <ele>803.26</ele>
        <time>2020-02-28T09:25:35.000Z</time>
      </trkpt>
      <trkpt lat="44.92566" lon="5.15384">
        <ele>801.32</ele>
        <time>2020-02-28T09:25:45.000Z</time>
      </trkpt>
      <trkpt lat="44.92558" lon="5.15395">
        <ele>799.28</ele>
        <time>2020-02-28T09:25:55.000Z</time>
      </trkpt>
      <trkpt lat="44.92549" lon="5.15411">
        <ele>797.11</ele>
        <time>2020-02-28T09:26:05.000Z</time>
      </trkpt>
      <trkpt lat="44.92537" lon="5.1543">
        <ele>794.89</ele>
        <time>2020-02-28T09:26:15.000Z</time>
      </trkpt>
      <trkpt lat="44.92533" lon="5.15441">
        <ele>794.63</ele>
        <time>2020-02-28T09:26:25.000Z</time>
      </trkpt>
      <trkpt lat="44.92529" lon="5.15447">
        <ele>794.41</ele>
        <time>2020-02-28T09:26:35.000Z</time>
      </trkpt>
      <trkpt lat="44.92525" lon="5.15454">
        <ele>794.5</ele>
        <time>2020-02-28T09:26:45.000Z</time>
      </trkpt>
      <trkpt lat="44.92517" lon="5.15468">
        <ele>795.5</ele>
        <time>2020-02-28T09:26:55.000Z</time>
      </trkpt>
      <trkpt lat="44.92507" lon="5.15485">
        <ele>797.81</ele>
        <time>2020-02-28T09:27:05.000Z</time>
      </trkpt>
      <trkpt lat="44.92498" lon="5.15498">
        <ele>799.61</ele>
        <time>2020-02-28T09:27:15.000Z</time>
      </trkpt>
      <trkpt lat="44.9249" lon="5.15503">
        <ele>799.85</ele>
        <time>2020-02-28T09:27:25.000Z</time>
      </trkpt>
      <trkpt lat="44.92484" lon="5.155">
        <ele>798.68</ele>
        <time>2020-02-28T09:27:35.000Z</time>
      </trkpt>
      <trkpt lat="44.92471" lon="5.15502">
        <ele>796.56</ele>
        <time>2020-02-28T09:27:45.000Z</time>
      </trkpt>
      <trkpt lat="44.92459" lon="5.15511">
        <ele>795.7</ele>
        <time>2020-02-28T09:27:55.000Z</time>
      </trkpt>
      <trkpt lat="44.92447" lon="5.15513">
        <ele>792.79</ele>
        <time>2020-02-28T09:28:05.000Z</time>
      </trkpt>
      <trkpt lat="44.92439" lon="5.15514">
        <ele>790.55</ele>
        <time>2020-02-28T09:28:15.000Z</time>
      </trkpt>
      <trkpt lat="44.92425" lon="5.15525">
        <ele>789.07</ele>
        <time>2020-02-28T09:28:25.000Z</time>
      </trkpt>
      <trkpt lat="44.92418" lon="5.15516">
        <ele>784.78</ele>
        <time>2020-02-28T09:28:35.000Z</time>
      </trkpt>
      <trkpt lat="44.92411" lon="5.15513">
        <ele>782.13</ele>
        <time>2020-02-28T09:28:45.000Z</time>
      </trkpt>
      <trkpt lat="44.92406" lon="5.15516">
        <ele>781.3</ele>
        <time>2020-02-28T09:28:58.000Z</time>
      </trkpt>
      <trkpt lat="44.92391" lon="5.1552">
        <ele>777.33</ele>
        <time>2020-02-28T09:29:08.000Z</time>
      </trkpt>
      <trkpt lat="44.92377" lon="5.15526">
        <ele>774.35</ele>
        <time>2020-02-28T09:29:18.000Z</time>
      </trkpt>
      <trkpt lat="44.92367" lon="5.15536">
        <ele>774.78</ele>
        <time>2020-02-28T09:29:28.000Z</time>
      </trkpt>
      <trkpt lat="44.92358" lon="5.15548">
        <ele>776.75</ele>
        <time>2020-02-28T09:29:38.000Z</time>
      </trkpt>
      <trkpt lat="44.9235" lon="5.15554">
        <ele>777.13</ele>
        <time>2020-02-28T09:29:48.000Z</time>
      </trkpt>
      <trkpt lat="44.92343" lon="5.15563">
        <ele>778.64</ele>
        <time>2020-02-28T09:29:58.000Z</time>
      </trkpt>
      <trkpt lat="44.92335" lon="5.15569">
        <ele>779.13</ele>
        <time>2020-02-28T09:30:08.000Z</time>
      </trkpt>
      <trkpt lat="44.92331" lon="5.15575">
        <ele>780.32</ele>
        <time>2020-02-28T09:30:18.000Z</time>
      </trkpt>
      <trkpt lat="44.92321" lon="5.15582">
        <ele>779.72</ele>
        <time>2020-02-28T09:30:28.000Z</time>
      </trkpt>
      <trkpt lat="44.92313" lon="5.15592">
        <ele>780.35</ele>
        <time>2020-02-28T09:30:38.000Z</time>
      </trkpt>
      <trkpt lat="44.92305" lon="5.15599">
        <ele>779.67</ele>
        <time>2020-02-28T09:30:48.000Z</time>
      </trkpt>
      <trkpt lat="44.92296" lon="5.15602">
        <ele>777.27</ele>
        <time>2020-02-28T09:30:58.000Z</time>
      </trkpt>
      <trkpt lat="44.92287" lon="5.1561">
        <ele>776.93</ele>
        <time>2020-02-28T09:31:08.000Z</time>
      </trkpt>
      <trkpt lat="44.92278" lon="5.15615">
        <ele>776.01</ele>
        <time>2020-02-28T09:31:18.000Z</time>
      </trkpt>
      <trkpt lat="44.92269" lon="5.15621">
        <ele>776.63</ele>
        <time>2020-02-28T09:31:28.000Z</time>
      </trkpt>
      <trkpt lat="44.92261" lon="5.15627">
        <ele>778.24</ele>
        <time>2020-02-28T09:31:38.000Z</time>
      </trkpt>
      <trkpt lat="44.92253" lon="5.15636">
        <ele>781.64</ele>
        <time>2020-02-28T09:31:48.000Z</time>
      </trkpt>
      <trkpt lat="44.92244" lon="5.1564">
        <ele>783.82</ele>
        <time>2020-02-28T09:31:58.000Z</time>
      </trkpt>
      <trkpt lat="44.92233" lon="5.15645">
        <ele>786.9</ele>
        <time>2020-02-28T09:32:08.000Z</time>
      </trkpt>
      <trkpt lat="44.92223" lon="5.15649">
        <ele>790.06</ele>
        <time>2020-02-28T09:32:18.000Z</time>
      </trkpt>
      <trkpt lat="44.92218" lon="5.15656">
        <ele>793.32</ele>
        <time>2020-02-28T09:32:28.000Z</time>
      </trkpt>
      <trkpt lat="44.92213" lon="5.1566">
        <ele>795.42</ele>
        <time>2020-02-28T09:33:01.000Z</time>
      </trkpt>
      <trkpt lat="44.92209" lon="5.15665">
        <ele>797.46</ele>
        <time>2020-02-28T09:33:40.000Z</time>
      </trkpt>
      <trkpt lat="44.92204" lon="5.15671">
        <ele>799.57</ele>
        <time>2020-02-28T09:33:56.000Z</time>
      </trkpt>
      <trkpt lat="44.92195" lon="5.15673">
        <ele>801.74</ele>
        <time>2020-02-28T09:34:06.000Z</time>
      </trkpt>
      <trkpt lat="44.92189" lon="5.15665">
        <ele>801.97</ele>
        <time>2020-02-28T09:34:16.000Z</time>
      </trkpt>
      <trkpt lat="44.9219" lon="5.15656">
        <ele>800.55</ele>
        <time>2020-02-28T09:34:27.000Z</time>
      </trkpt>
      <trkpt lat="44.92189" lon="5.15648">
        <ele>799.6</ele>
        <time>2020-02-28T09:34:48.000Z</time>
      </trkpt>
      <trkpt lat="44.92179" lon="5.15616">
        <ele>798.83</ele>
        <time>2020-02-28T09:34:58.000Z</time>
      </trkpt>
      <trkpt lat="44.92181" lon="5.15601">
        <ele>795.89</ele>
        <time>2020-02-28T09:35:08.000Z</time>
      </trkpt>
      <trkpt lat="44.92179" lon="5.15582">
        <ele>795.21</ele>
        <time>2020-02-28T09:35:18.000Z</time>
      </trkpt>
      <trkpt lat="44.92176" lon="5.15563">
        <ele>794.47</ele>
        <time>2020-02-28T09:35:28.000Z</time>
      </trkpt>
      <trkpt lat="44.92174" lon="5.15555">
        <ele>794.65</ele>
        <time>2020-02-28T09:35:38.000Z</time>
      </trkpt>
      <trkpt lat="44.92168" lon="5.15546">
        <ele>796.65</ele>
        <time>2020-02-28T09:35:48.000Z</time>
      </trkpt>
      <trkpt lat="44.92167" lon="5.1553">
        <ele>794.97</ele>
        <time>2020-02-28T09:35:58.000Z</time>
      </trkpt>
      <trkpt lat="44.92161" lon="5.15513">
        <ele>794.73</ele>
        <time>2020-02-28T09:36:08.000Z</time>
      </trkpt>
      <trkpt lat="44.92158" lon="5.15505">
        <ele>794.8</ele>
        <time>2020-02-28T09:36:18.000Z</time>
      </trkpt>
      <trkpt lat="44.92151" lon="5.15491">
        <ele>794.67</ele>
        <time>2020-02-28T09:36:28.000Z</time>
      </trkpt>
      <trkpt lat="44.92146" lon="5.15482">
        <ele>794.21</ele>
        <time>2020-02-28T09:36:38.000Z</time>
      </trkpt>
      <trkpt lat="44.9214" lon="5.15473">
        <ele>794.14</ele>
        <time>2020-02-28T09:36:48.000Z</time>
      </trkpt>
      <trkpt lat="44.92131" lon="5.15464">
        <ele>794.95</ele>
        <time>2020-02-28T09:36:58.000Z</time>
      </trkpt>
      <trkpt lat="44.92122" lon="5.15453">
        <ele>795.67</ele>
        <time>2020-02-28T09:37:08.000Z</time>
      </trkpt>
      <trkpt lat="44.92117" lon="5.15442">
        <ele>795.54</ele>
        <time>2020-02-28T09:37:18.000Z</time>
      </trkpt>
      <trkpt lat="44.92106" lon="5.15433">
        <ele>797.5</ele>
        <time>2020-02-28T09:37:28.000Z</time>
      </trkpt>
      <trkpt lat="44.92098" lon="5.15425">
        <ele>798.7</ele>
        <time>2020-02-28T09:37:38.000Z</time>
      </trkpt>
      <trkpt lat="44.9209" lon="5.15419">
        <ele>799.49</ele>
        <time>2020-02-28T09:37:48.000Z</time>
      </trkpt>
      <trkpt lat="44.9208" lon="5.15411">
        <ele>799.51</ele>
        <time>2020-02-28T09:37:58.000Z</time>
      </trkpt>
      <trkpt lat="44.92073" lon="5.15402">
        <ele>798.39</ele>
        <time>2020-02-28T09:38:08.000Z</time>
      </trkpt>
      <trkpt lat="44.92068" lon="5.15396">
        <ele>797.13</ele>
        <time>2020-02-28T09:38:18.000Z</time>
      </trkpt>
      <trkpt lat="44.92063" lon="5.15387">
        <ele>795.14</ele>
        <time>2020-02-28T09:38:28.000Z</time>
      </trkpt>
      <trkpt lat="44.92059" lon="5.15376">
        <ele>792.95</ele>
        <time>2020-02-28T09:38:38.000Z</time>
      </trkpt>
      <trkpt lat="44.9206" lon="5.15364">
        <ele>792.03</ele>
        <time>2020-02-28T09:38:48.000Z</time>
      </trkpt>
      <trkpt lat="44.92064" lon="5.15355">
        <ele>792.49</ele>
        <time>2020-02-28T09:38:58.000Z</time>
      </trkpt>
      <trkpt lat="44.92068" lon="5.15345">
        <ele>792.35</ele>
        <time>2020-02-28T09:39:08.000Z</time>
      </trkpt>
      <trkpt lat="44.92071" lon="5.15335">
        <ele>791.87</ele>
        <time>2020-02-28T09:39:18.000Z</time>
      </trkpt>
      <trkpt lat="44.92074" lon="5.15325">
        <ele>790.96</ele>
        <time>2020-02-28T09:39:28.000Z</time>
      </trkpt>
      <trkpt lat="44.92078" lon="5.15315">
        <ele>790.17</ele>
        <time>2020-02-28T09:39:38.000Z</time>
      </trkpt>
      <trkpt lat="44.92084" lon="5.153">
        <ele>788.38</ele>
        <time>2020-02-28T09:39:48.000Z</time>
      </trkpt>
      <trkpt lat="44.92093" lon="5.15288">
        <ele>786.75</ele>
        <time>2020-02-28T09:39:58.000Z</time>
      </trkpt>
      <trkpt lat="44.92101" lon="5.15276">
        <ele>784.83</ele>
        <time>2020-02-28T09:40:08.000Z</time>
      </trkpt>
      <trkpt lat="44.92107" lon="5.15264">
        <ele>783.08</ele>
        <time>2020-02-28T09:40:18.000Z</time>
      </trkpt>
      <trkpt lat="44.92109" lon="5.15251">
        <ele>781.49</ele>
        <time>2020-02-28T09:40:28.000Z</time>
      </trkpt>
      <trkpt lat="44.92112" lon="5.15241">
        <ele>780.23</ele>
        <time>2020-02-28T09:40:38.000Z</time>
      </trkpt>
      <trkpt lat="44.92115" lon="5.15232">
        <ele>779.05</ele>
        <time>2020-02-28T09:40:48.000Z</time>
      </trkpt>
      <trkpt lat="44.92116" lon="5.15219">
        <ele>777.23</ele>
        <time>2020-02-28T09:40:58.000Z</time>
      </trkpt>
      <trkpt lat="44.92114" lon="5.1521">
        <ele>776.03</ele>
        <time>2020-02-28T09:41:08.000Z</time>
      </trkpt>
      <trkpt lat="44.92112" lon="5.15201">
        <ele>774.51</ele>
        <time>2020-02-28T09:41:18.000Z</time>
      </trkpt>
      <trkpt lat="44.92109" lon="5.15191">
        <ele>772.59</ele>
        <time>2020-02-28T09:41:28.000Z</time>
      </trkpt>
      <trkpt lat="44.92109" lon="5.15181">
        <ele>770.87</ele>
        <time>2020-02-28T09:41:38.000Z</time>
      </trkpt>
      <trkpt lat="44.9211" lon="5.15173">
        <ele>769.53</ele>
        <time>2020-02-28T09:41:48.000Z</time>
      </trkpt>
      <trkpt lat="44.92109" lon="5.15162">
        <ele>767.32</ele>
        <time>2020-02-28T09:41:58.000Z</time>
      </trkpt>
      <trkpt lat="44.92108" lon="5.15153">
        <ele>765.56</ele>
        <time>2020-02-28T09:42:08.000Z</time>
      </trkpt>
      <trkpt lat="44.92105" lon="5.15143">
        <ele>763.21</ele>
        <time>2020-02-28T09:42:18.000Z</time>
      </trkpt>
      <trkpt lat="44.92103" lon="5.15132">
        <ele>760.53</ele>
        <time>2020-02-28T09:42:28.000Z</time>
      </trkpt>
      <trkpt lat="44.92106" lon="5.15123">
        <ele>758.78</ele>
        <time>2020-02-28T09:42:38.000Z</time>
      </trkpt>
      <trkpt lat="44.92109" lon="5.15111">
        <ele>756.39</ele>
        <time>2020-02-28T09:42:48.000Z</time>
      </trkpt>
      <trkpt lat="44.9211" lon="5.15096">
        <ele>753.14</ele>
        <time>2020-02-28T09:42:58.000Z</time>
      </trkpt>
      <trkpt lat="44.9211" lon="5.15085">
        <ele>750.77</ele>
        <time>2020-02-28T09:43:08.000Z</time>
      </trkpt>
      <trkpt lat="44.92109" lon="5.15075">
        <ele>748.78</ele>
        <time>2020-02-28T09:43:18.000Z</time>
      </trkpt>
      <trkpt lat="44.92103" lon="5.15075">
        <ele>748.31</ele>
        <time>2020-02-28T09:43:35.000Z</time>
      </trkpt>
      <trkpt lat="44.92092" lon="5.15092">
        <ele>750.6</ele>
        <time>2020-02-28T09:43:45.000Z</time>
      </trkpt>
      <trkpt lat="44.92087" lon="5.15099">
        <ele>751.21</ele>
        <time>2020-02-28T09:43:56.000Z</time>
      </trkpt>
      <trkpt lat="44.92082" lon="5.15106">
        <ele>751.54</ele>
        <time>2020-02-28T09:44:06.000Z</time>
      </trkpt>
      <trkpt lat="44.92074" lon="5.15119">
        <ele>751.49</ele>
        <time>2020-02-28T09:44:16.000Z</time>
      </trkpt>
      <trkpt lat="44.92069" lon="5.15127">
        <ele>750.45</ele>
        <time>2020-02-28T09:44:26.000Z</time>
      </trkpt>
      <trkpt lat="44.92062" lon="5.15133">
        <ele>747.96</ele>
        <time>2020-02-28T09:44:36.000Z</time>
      </trkpt>
      <trkpt lat="44.92055" lon="5.15145">
        <ele>746.56</ele>
        <time>2020-02-28T09:44:46.000Z</time>
      </trkpt>
      <trkpt lat="44.92048" lon="5.15159">
        <ele>744.78</ele>
        <time>2020-02-28T09:44:56.000Z</time>
      </trkpt>
      <trkpt lat="44.92042" lon="5.15168">
        <ele>742.8</ele>
        <time>2020-02-28T09:45:06.000Z</time>
      </trkpt>
      <trkpt lat="44.92036" lon="5.15172">
        <ele>740.39</ele>
        <time>2020-02-28T09:45:16.000Z</time>
      </trkpt>
      <trkpt lat="44.92029" lon="5.15181">
        <ele>738.05</ele>
        <time>2020-02-28T09:45:26.000Z</time>
      </trkpt>
      <trkpt lat="44.92021" lon="5.15193">
        <ele>737.12</ele>
        <time>2020-02-28T09:45:36.000Z</time>
      </trkpt>
      <trkpt lat="44.92016" lon="5.152">
        <ele>736.44</ele>
        <time>2020-02-28T09:45:46.000Z</time>
      </trkpt>
      <trkpt lat="44.92005" lon="5.15208">
        <ele>735.69</ele>
        <time>2020-02-28T09:45:56.000Z</time>
      </trkpt>
      <trkpt lat="44.91995" lon="5.15213">
        <ele>736.43</ele>
        <time>2020-02-28T09:46:06.000Z</time>
      </trkpt>
      <trkpt lat="44.91989" lon="5.15216">
        <ele>737.71</ele>
        <time>2020-02-28T09:46:16.000Z</time>
      </trkpt>
      <trkpt lat="44.91982" lon="5.15224">
        <ele>741.42</ele>
        <time>2020-02-28T09:46:26.000Z</time>
      </trkpt>
      <trkpt lat="44.91968" lon="5.15214">
        <ele>743.4</ele>
        <time>2020-02-28T09:46:36.000Z</time>
      </trkpt>
      <trkpt lat="44.91968" lon="5.152">
        <ele>739.81</ele>
        <time>2020-02-28T09:46:46.000Z</time>
      </trkpt>
      <trkpt lat="44.91963" lon="5.15192">
        <ele>739.92</ele>
        <time>2020-02-28T09:46:56.000Z</time>
      </trkpt>
      <trkpt lat="44.91959" lon="5.15178">
        <ele>738.45</ele>
        <time>2020-02-28T09:47:06.000Z</time>
      </trkpt>
      <trkpt lat="44.91956" lon="5.15164">
        <ele>736.62</ele>
        <time>2020-02-28T09:47:16.000Z</time>
      </trkpt>
      <trkpt lat="44.9195" lon="5.15153">
        <ele>736.86</ele>
        <time>2020-02-28T09:47:26.000Z</time>
      </trkpt>
      <trkpt lat="44.91943" lon="5.15145">
        <ele>738.48</ele>
        <time>2020-02-28T09:47:36.000Z</time>
      </trkpt>
      <trkpt lat="44.9194" lon="5.15129">
        <ele>736.74</ele>
        <time>2020-02-28T09:47:46.000Z</time>
      </trkpt>
      <trkpt lat="44.91937" lon="5.15116">
        <ele>735.22</ele>
        <time>2020-02-28T09:47:56.000Z</time>
      </trkpt>
      <trkpt lat="44.91936" lon="5.15103">
        <ele>732.89</ele>
        <time>2020-02-28T09:48:06.000Z</time>
      </trkpt>
      <trkpt lat="44.91935" lon="5.15092">
        <ele>731.07</ele>
        <time>2020-02-28T09:48:16.000Z</time>
      </trkpt>
      <trkpt lat="44.91933" lon="5.15078">
        <ele>728.56</ele>
        <time>2020-02-28T09:48:26.000Z</time>
      </trkpt>
      <trkpt lat="44.91928" lon="5.15064">
        <ele>726.81</ele>
        <time>2020-02-28T09:48:36.000Z</time>
      </trkpt>
      <trkpt lat="44.91917" lon="5.15053">
        <ele>727.34</ele>
        <time>2020-02-28T09:48:46.000Z</time>
      </trkpt>
      <trkpt lat="44.9191" lon="5.15044">
        <ele>726.54</ele>
        <time>2020-02-28T09:48:56.000Z</time>
      </trkpt>
      <trkpt lat="44.91901" lon="5.15034">
        <ele>725.83</ele>
        <time>2020-02-28T09:49:06.000Z</time>
      </trkpt>
      <trkpt lat="44.91893" lon="5.15024">
        <ele>724.86</ele>
        <time>2020-02-28T09:49:16.000Z</time>
      </trkpt>
      <trkpt lat="44.91888" lon="5.15014">
        <ele>723.54</ele>
        <time>2020-02-28T09:49:26.000Z</time>
      </trkpt>
      <trkpt lat="44.91887" lon="5.15004">
        <ele>721.86</ele>
        <time>2020-02-28T09:49:36.000Z</time>
      </trkpt>
      <trkpt lat="44.91886" lon="5.14991">
        <ele>719.66</ele>
        <time>2020-02-28T09:49:46.000Z</time>
      </trkpt>
      <trkpt lat="44.91884" lon="5.14982">
        <ele>718.72</ele>
        <time>2020-02-28T09:49:56.000Z</time>
      </trkpt>
      <trkpt lat="44.91882" lon="5.14972">
        <ele>717.56</ele>
        <time>2020-02-28T09:50:06.000Z</time>
      </trkpt>
      <trkpt lat="44.91882" lon="5.14962">
        <ele>715.95</ele>
        <time>2020-02-28T09:50:16.000Z</time>
      </trkpt>
      <trkpt lat="44.91884" lon="5.14953">
        <ele>713.98</ele>
        <time>2020-02-28T09:50:26.000Z</time>
      </trkpt>
      <trkpt lat="44.91882" lon="5.14935">
        <ele>712.97</ele>
        <time>2020-02-28T09:50:36.000Z</time>
      </trkpt>
      <trkpt lat="44.91884" lon="5.14925">
        <ele>711.44</ele>
        <time>2020-02-28T09:50:46.000Z</time>
      </trkpt>
      <trkpt lat="44.91883" lon="5.14912">
        <ele>711.12</ele>
        <time>2020-02-28T09:50:56.000Z</time>
      </trkpt>
      <trkpt lat="44.91888" lon="5.149">
        <ele>709.14</ele>
        <time>2020-02-28T09:51:06.000Z</time>
      </trkpt>
      <trkpt lat="44.91881" lon="5.14893">
        <ele>712.82</ele>
        <time>2020-02-28T09:51:16.000Z</time>
      </trkpt>
      <trkpt lat="44.91883" lon="5.14886">
        <ele>712.18</ele>
        <time>2020-02-28T09:51:34.000Z</time>
      </trkpt>
      <trkpt lat="44.91887" lon="5.14881">
        <ele>710.64</ele>
        <time>2020-02-28T09:51:47.000Z</time>
      </trkpt>
      <trkpt lat="44.9189" lon="5.14872">
        <ele>709.77</ele>
        <time>2020-02-28T09:51:57.000Z</time>
      </trkpt>
      <trkpt lat="44.91902" lon="5.14859">
        <ele>704.54</ele>
        <time>2020-02-28T09:52:07.000Z</time>
      </trkpt>
      <trkpt lat="44.91904" lon="5.14848">
        <ele>704.46</ele>
        <time>2020-02-28T09:52:17.000Z</time>
      </trkpt>
      <trkpt lat="44.91905" lon="5.14833">
        <ele>704.42</ele>
        <time>2020-02-28T09:52:27.000Z</time>
      </trkpt>
      <trkpt lat="44.91913" lon="5.14823">
        <ele>700.77</ele>
        <time>2020-02-28T09:52:37.000Z</time>
      </trkpt>
      <trkpt lat="44.91917" lon="5.1481">
        <ele>699.17</ele>
        <time>2020-02-28T09:52:47.000Z</time>
      </trkpt>
      <trkpt lat="44.91919" lon="5.14799">
        <ele>698.95</ele>
        <time>2020-02-28T09:52:57.000Z</time>
      </trkpt>
      <trkpt lat="44.91923" lon="5.14792">
        <ele>697.5</ele>
        <time>2020-02-28T09:53:07.000Z</time>
      </trkpt>
      <trkpt lat="44.91926" lon="5.14777">
        <ele>696.49</ele>
        <time>2020-02-28T09:53:17.000Z</time>
      </trkpt>
      <trkpt lat="44.91928" lon="5.14757">
        <ele>695.63</ele>
        <time>2020-02-28T09:53:27.000Z</time>
      </trkpt>
      <trkpt lat="44.91932" lon="5.14742">
        <ele>693.56</ele>
        <time>2020-02-28T09:53:37.000Z</time>
      </trkpt>
      <trkpt lat="44.91936" lon="5.14731">
        <ele>691.81</ele>
        <time>2020-02-28T09:53:47.000Z</time>
      </trkpt>
      <trkpt lat="44.91937" lon="5.14714">
        <ele>689.99</ele>
        <time>2020-02-28T09:53:57.000Z</time>
      </trkpt>
      <trkpt lat="44.91939" lon="5.14703">
        <ele>688.23</ele>
        <time>2020-02-28T09:54:07.000Z</time>
      </trkpt>
      <trkpt lat="44.91941" lon="5.14692">
        <ele>686.4</ele>
        <time>2020-02-28T09:54:17.000Z</time>
      </trkpt>
      <trkpt lat="44.9194" lon="5.1468">
        <ele>685.06</ele>
        <time>2020-02-28T09:54:27.000Z</time>
      </trkpt>
      <trkpt lat="44.91942" lon="5.14666">
        <ele>682.15</ele>
        <time>2020-02-28T09:54:37.000Z</time>
      </trkpt>
      <trkpt lat="44.91938" lon="5.14655">
        <ele>680.98</ele>
        <time>2020-02-28T09:54:47.000Z</time>
      </trkpt>
      <trkpt lat="44.91933" lon="5.14642">
        <ele>678.91</ele>
        <time>2020-02-28T09:54:57.000Z</time>
      </trkpt>
      <trkpt lat="44.9193" lon="5.1463">
        <ele>675.92</ele>
        <time>2020-02-28T09:55:07.000Z</time>
      </trkpt>
      <trkpt lat="44.91927" lon="5.14621">
        <ele>673.66</ele>
        <time>2020-02-28T09:55:20.000Z</time>
      </trkpt>
      <trkpt lat="44.91921" lon="5.14615">
        <ele>672.32</ele>
        <time>2020-02-28T09:55:30.000Z</time>
      </trkpt>
      <trkpt lat="44.91914" lon="5.14609">
        <ele>670.94</ele>
        <time>2020-02-28T09:55:40.000Z</time>
      </trkpt>
      <trkpt lat="44.91908" lon="5.14606">
        <ele>670.1</ele>
        <time>2020-02-28T09:55:50.000Z</time>
      </trkpt>
      <trkpt lat="44.91902" lon="5.14599">
        <ele>668.04</ele>
        <time>2020-02-28T09:56:00.000Z</time>
      </trkpt>
      <trkpt lat="44.91893" lon="5.14597">
        <ele>667.25</ele>
        <time>2020-02-28T09:56:10.000Z</time>
      </trkpt>
      <trkpt lat="44.91885" lon="5.14596">
        <ele>666.57</ele>
        <time>2020-02-28T09:56:20.000Z</time>
      </trkpt>
      <trkpt lat="44.91875" lon="5.14595">
        <ele>665.94</ele>
        <time>2020-02-28T09:56:30.000Z</time>
      </trkpt>
      <trkpt lat="44.91865" lon="5.14591">
        <ele>665.12</ele>
        <time>2020-02-28T09:56:40.000Z</time>
      </trkpt>
      <trkpt lat="44.91859" lon="5.1459">
        <ele>664.96</ele>
        <time>2020-02-28T09:56:50.000Z</time>
      </trkpt>
      <trkpt lat="44.91854" lon="5.14584">
        <ele>664.57</ele>
        <time>2020-02-28T09:57:00.000Z</time>
      </trkpt>
      <trkpt lat="44.91852" lon="5.14574">
        <ele>664.53</ele>
        <time>2020-02-28T09:57:10.000Z</time>
      </trkpt>
      <trkpt lat="44.91856" lon="5.14564">
        <ele>664.58</ele>
        <time>2020-02-28T09:57:20.000Z</time>
      </trkpt>
      <trkpt lat="44.9186" lon="5.14555">
        <ele>664.57</ele>
        <time>2020-02-28T09:57:30.000Z</time>
      </trkpt>
      <trkpt lat="44.91866" lon="5.14549">
        <ele>663.57</ele>
        <time>2020-02-28T09:57:40.000Z</time>
      </trkpt>
      <trkpt lat="44.91875" lon="5.1454">
        <ele>661.52</ele>
        <time>2020-02-28T09:57:50.000Z</time>
      </trkpt>
      <trkpt lat="44.91881" lon="5.14529">
        <ele>659.37</ele>
        <time>2020-02-28T09:58:00.000Z</time>
      </trkpt>
      <trkpt lat="44.91887" lon="5.14522">
        <ele>656.68</ele>
        <time>2020-02-28T09:58:10.000Z</time>
      </trkpt>
      <trkpt lat="44.9189" lon="5.14505">
        <ele>654.99</ele>
        <time>2020-02-28T09:58:20.000Z</time>
      </trkpt>
      <trkpt lat="44.91903" lon="5.14494">
        <ele>648.47</ele>
        <time>2020-02-28T09:58:30.000Z</time>
      </trkpt>
      <trkpt lat="44.91909" lon="5.14484">
        <ele>647.34</ele>
        <time>2020-02-28T09:58:40.000Z</time>
      </trkpt>
      <trkpt lat="44.91919" lon="5.14476">
        <ele>644.93</ele>
        <time>2020-02-28T09:58:50.000Z</time>
      </trkpt>
      <trkpt lat="44.91912" lon="5.14463">
        <ele>650.81</ele>
        <time>2020-02-28T09:59:00.000Z</time>
      </trkpt>
      <trkpt lat="44.9192" lon="5.14452">
        <ele>651</ele>
        <time>2020-02-28T09:59:10.000Z</time>
      </trkpt>
      <trkpt lat="44.91927" lon="5.1444">
        <ele>651.49</ele>
        <time>2020-02-28T09:59:20.000Z</time>
      </trkpt>
      <trkpt lat="44.91934" lon="5.14428">
        <ele>650.81</ele>
        <time>2020-02-28T09:59:30.000Z</time>
      </trkpt>
      <trkpt lat="44.91934" lon="5.14418">
        <ele>652.15</ele>
        <time>2020-02-28T09:59:40.000Z</time>
      </trkpt>
      <trkpt lat="44.9194" lon="5.14408">
        <ele>650.01</ele>
        <time>2020-02-28T09:59:50.000Z</time>
      </trkpt>
      <trkpt lat="44.91943" lon="5.14393">
        <ele>649.55</ele>
        <time>2020-02-28T10:00:00.000Z</time>
      </trkpt>
      <trkpt lat="44.91943" lon="5.14375">
        <ele>651.02</ele>
        <time>2020-02-28T10:00:10.000Z</time>
      </trkpt>
      <trkpt lat="44.91943" lon="5.14364">
        <ele>651.41</ele>
        <time>2020-02-28T10:00:20.000Z</time>
      </trkpt>
      <trkpt lat="44.91943" lon="5.14344">
        <ele>651.64</ele>
        <time>2020-02-28T10:00:30.000Z</time>
      </trkpt>
      <trkpt lat="44.9194" lon="5.14328">
        <ele>651.92</ele>
        <time>2020-02-28T10:00:40.000Z</time>
      </trkpt>
      <trkpt lat="44.91939" lon="5.14312">
        <ele>650.5</ele>
        <time>2020-02-28T10:00:50.000Z</time>
      </trkpt>
      <trkpt lat="44.91935" lon="5.143">
        <ele>650.03</ele>
        <time>2020-02-28T10:01:00.000Z</time>
      </trkpt>
      <trkpt lat="44.91928" lon="5.14285">
        <ele>649.35</ele>
        <time>2020-02-28T10:01:10.000Z</time>
      </trkpt>
      <trkpt lat="44.9192" lon="5.14273">
        <ele>648.82</ele>
        <time>2020-02-28T10:01:20.000Z</time>
      </trkpt>
      <trkpt lat="44.91911" lon="5.14263">
        <ele>648.45</ele>
        <time>2020-02-28T10:01:30.000Z</time>
      </trkpt>
      <trkpt lat="44.91906" lon="5.14253">
        <ele>646.7</ele>
        <time>2020-02-28T10:01:40.000Z</time>
      </trkpt>
      <trkpt lat="44.91896" lon="5.14248">
        <ele>645.53</ele>
        <time>2020-02-28T10:01:50.000Z</time>
      </trkpt>
      <trkpt lat="44.91886" lon="5.14244">
        <ele>644.01</ele>
        <time>2020-02-28T10:02:00.000Z</time>
      </trkpt>
      <trkpt lat="44.91875" lon="5.14244">
        <ele>642.54</ele>
        <time>2020-02-28T10:02:10.000Z</time>
      </trkpt>
      <trkpt lat="44.91862" lon="5.14244">
        <ele>640.8</ele>
        <time>2020-02-28T10:02:20.000Z</time>
      </trkpt>
      <trkpt lat="44.9185" lon="5.14247">
        <ele>640.48</ele>
        <time>2020-02-28T10:02:30.000Z</time>
      </trkpt>
      <trkpt lat="44.91839" lon="5.14247">
        <ele>640.73</ele>
        <time>2020-02-28T10:02:40.000Z</time>
      </trkpt>
      <trkpt lat="44.91827" lon="5.14248">
        <ele>642.96</ele>
        <time>2020-02-28T10:02:50.000Z</time>
      </trkpt>
      <trkpt lat="44.91817" lon="5.14251">
        <ele>646.11</ele>
        <time>2020-02-28T10:03:00.000Z</time>
      </trkpt>
      <trkpt lat="44.91811" lon="5.1425">
        <ele>648.02</ele>
        <time>2020-02-28T10:03:11.000Z</time>
      </trkpt>
      <trkpt lat="44.91803" lon="5.1424">
        <ele>649.97</ele>
        <time>2020-02-28T10:03:21.000Z</time>
      </trkpt>
      <trkpt lat="44.91811" lon="5.14225">
        <ele>646.18</ele>
        <time>2020-02-28T10:03:31.000Z</time>
      </trkpt>
      <trkpt lat="44.91814" lon="5.14207">
        <ele>644.82</ele>
        <time>2020-02-28T10:03:41.000Z</time>
      </trkpt>
      <trkpt lat="44.91818" lon="5.14195">
        <ele>643.54</ele>
        <time>2020-02-28T10:03:51.000Z</time>
      </trkpt>
      <trkpt lat="44.91828" lon="5.14186">
        <ele>640.83</ele>
        <time>2020-02-28T10:04:01.000Z</time>
      </trkpt>
      <trkpt lat="44.91833" lon="5.14183">
        <ele>639.57</ele>
        <time>2020-02-28T10:05:21.000Z</time>
      </trkpt>
      <trkpt lat="44.91837" lon="5.14166">
        <ele>638.25</ele>
        <time>2020-02-28T10:05:31.000Z</time>
      </trkpt>
      <trkpt lat="44.91843" lon="5.14154">
        <ele>636.17</ele>
        <time>2020-02-28T10:05:41.000Z</time>
      </trkpt>
      <trkpt lat="44.91849" lon="5.14148">
        <ele>634.75</ele>
        <time>2020-02-28T10:05:51.000Z</time>
      </trkpt>
      <trkpt lat="44.91853" lon="5.14129">
        <ele>632.39</ele>
        <time>2020-02-28T10:06:01.000Z</time>
      </trkpt>
      <trkpt lat="44.91857" lon="5.14117">
        <ele>630.57</ele>
        <time>2020-02-28T10:06:11.000Z</time>
      </trkpt>
      <trkpt lat="44.91859" lon="5.14102">
        <ele>628.96</ele>
        <time>2020-02-28T10:06:21.000Z</time>
      </trkpt>
      <trkpt lat="44.91867" lon="5.14094">
        <ele>626.32</ele>
        <time>2020-02-28T10:06:31.000Z</time>
      </trkpt>
      <trkpt lat="44.91874" lon="5.14086">
        <ele>624.03</ele>
        <time>2020-02-28T10:06:41.000Z</time>
      </trkpt>
      <trkpt lat="44.91879" lon="5.14067">
        <ele>621.35</ele>
        <time>2020-02-28T10:06:51.000Z</time>
      </trkpt>
      <trkpt lat="44.91888" lon="5.14061">
        <ele>619.09</ele>
        <time>2020-02-28T10:07:01.000Z</time>
      </trkpt>
      <trkpt lat="44.91894" lon="5.14057">
        <ele>617.68</ele>
        <time>2020-02-28T10:07:14.000Z</time>
      </trkpt>
      <trkpt lat="44.91904" lon="5.14044">
        <ele>615.66</ele>
        <time>2020-02-28T10:07:24.000Z</time>
      </trkpt>
      <trkpt lat="44.91912" lon="5.14039">
        <ele>614.19</ele>
        <time>2020-02-28T10:07:34.000Z</time>
      </trkpt>
      <trkpt lat="44.91923" lon="5.14036">
        <ele>612.47</ele>
        <time>2020-02-28T10:07:44.000Z</time>
      </trkpt>
      <trkpt lat="44.91933" lon="5.14031">
        <ele>610.73</ele>
        <time>2020-02-28T10:07:54.000Z</time>
      </trkpt>
      <trkpt lat="44.91944" lon="5.14028">
        <ele>609.09</ele>
        <time>2020-02-28T10:08:04.000Z</time>
      </trkpt>
      <trkpt lat="44.91952" lon="5.14023">
        <ele>608.05</ele>
        <time>2020-02-28T10:08:14.000Z</time>
      </trkpt>
      <trkpt lat="44.91964" lon="5.1402">
        <ele>606.28</ele>
        <time>2020-02-28T10:08:24.000Z</time>
      </trkpt>
      <trkpt lat="44.91973" lon="5.14017">
        <ele>605.31</ele>
        <time>2020-02-28T10:08:34.000Z</time>
      </trkpt>
      <trkpt lat="44.91983" lon="5.14013">
        <ele>604.3</ele>
        <time>2020-02-28T10:08:44.000Z</time>
      </trkpt>
      <trkpt lat="44.91993" lon="5.14012">
        <ele>602.99</ele>
        <time>2020-02-28T10:08:54.000Z</time>
      </trkpt>
      <trkpt lat="44.92003" lon="5.14009">
        <ele>602.05</ele>
        <time>2020-02-28T10:09:04.000Z</time>
      </trkpt>
      <trkpt lat="44.92013" lon="5.14007">
        <ele>601.15</ele>
        <time>2020-02-28T10:09:14.000Z</time>
      </trkpt>
      <trkpt lat="44.9202" lon="5.14005">
        <ele>600.7</ele>
        <time>2020-02-28T10:09:24.000Z</time>
      </trkpt>
      <trkpt lat="44.92025" lon="5.14004">
        <ele>600.32</ele>
        <time>2020-02-28T10:09:38.000Z</time>
      </trkpt>
      <trkpt lat="44.92034" lon="5.14002">
        <ele>599.71</ele>
        <time>2020-02-28T10:09:48.000Z</time>
      </trkpt>
      <trkpt lat="44.92045" lon="5.13999">
        <ele>598.82</ele>
        <time>2020-02-28T10:09:58.000Z</time>
      </trkpt>
      <trkpt lat="44.92055" lon="5.13994">
        <ele>597.89</ele>
        <time>2020-02-28T10:10:08.000Z</time>
      </trkpt>
      <trkpt lat="44.92064" lon="5.13987">
        <ele>596.68</ele>
        <time>2020-02-28T10:10:18.000Z</time>
      </trkpt>
      <trkpt lat="44.92074" lon="5.1398">
        <ele>594.79</ele>
        <time>2020-02-28T10:10:28.000Z</time>
      </trkpt>
      <trkpt lat="44.9208" lon="5.13982">
        <ele>593.83</ele>
        <time>2020-02-28T10:10:41.000Z</time>
      </trkpt>
      <trkpt lat="44.92084" lon="5.13975">
        <ele>592.65</ele>
        <time>2020-02-28T10:11:22.000Z</time>
      </trkpt>
      <trkpt lat="44.92095" lon="5.13968">
        <ele>590.18</ele>
        <time>2020-02-28T10:11:32.000Z</time>
      </trkpt>
      <trkpt lat="44.92105" lon="5.13957">
        <ele>587.52</ele>
        <time>2020-02-28T10:11:42.000Z</time>
      </trkpt>
      <trkpt lat="44.92116" lon="5.13949">
        <ele>585.2</ele>
        <time>2020-02-28T10:11:52.000Z</time>
      </trkpt>
      <trkpt lat="44.92128" lon="5.13943">
        <ele>582.86</ele>
        <time>2020-02-28T10:12:02.000Z</time>
      </trkpt>
      <trkpt lat="44.92138" lon="5.13937">
        <ele>581.01</ele>
        <time>2020-02-28T10:12:12.000Z</time>
      </trkpt>
      <trkpt lat="44.92147" lon="5.13927">
        <ele>579.21</ele>
        <time>2020-02-28T10:12:22.000Z</time>
      </trkpt>
      <trkpt lat="44.92157" lon="5.13915">
        <ele>577.13</ele>
        <time>2020-02-28T10:12:32.000Z</time>
      </trkpt>
      <trkpt lat="44.92165" lon="5.13906">
        <ele>574.81</ele>
        <time>2020-02-28T10:12:42.000Z</time>
      </trkpt>
      <trkpt lat="44.92175" lon="5.13895">
        <ele>571.35</ele>
        <time>2020-02-28T10:12:52.000Z</time>
      </trkpt>
      <trkpt lat="44.92184" lon="5.13883">
        <ele>568.1</ele>
        <time>2020-02-28T10:13:02.000Z</time>
      </trkpt>
      <trkpt lat="44.92191" lon="5.1387">
        <ele>565.75</ele>
        <time>2020-02-28T10:13:12.000Z</time>
      </trkpt>
      <trkpt lat="44.92199" lon="5.13857">
        <ele>564.14</ele>
        <time>2020-02-28T10:13:22.000Z</time>
      </trkpt>
      <trkpt lat="44.92206" lon="5.13846">
        <ele>563.08</ele>
        <time>2020-02-28T10:13:32.000Z</time>
      </trkpt>
      <trkpt lat="44.92214" lon="5.13837">
        <ele>561.85</ele>
        <time>2020-02-28T10:13:42.000Z</time>
      </trkpt>
      <trkpt lat="44.92225" lon="5.13832">
        <ele>559.7</ele>
        <time>2020-02-28T10:13:52.000Z</time>
      </trkpt>
      <trkpt lat="44.92232" lon="5.13828">
        <ele>558.2</ele>
        <time>2020-02-28T10:14:02.000Z</time>
      </trkpt>
      <trkpt lat="44.92235" lon="5.1382">
        <ele>558.17</ele>
        <time>2020-02-28T10:14:21.000Z</time>
      </trkpt>
      <trkpt lat="44.92243" lon="5.13807">
        <ele>556.82</ele>
        <time>2020-02-28T10:14:31.000Z</time>
      </trkpt>
      <trkpt lat="44.92251" lon="5.13797">
        <ele>555.05</ele>
        <time>2020-02-28T10:14:41.000Z</time>
      </trkpt>
      <trkpt lat="44.92259" lon="5.13784">
        <ele>552.96</ele>
        <time>2020-02-28T10:14:51.000Z</time>
      </trkpt>
      <trkpt lat="44.92264" lon="5.13772">
        <ele>551.55</ele>
        <time>2020-02-28T10:15:01.000Z</time>
      </trkpt>
      <trkpt lat="44.92271" lon="5.13759">
        <ele>549.69</ele>
        <time>2020-02-28T10:15:11.000Z</time>
      </trkpt>
      <trkpt lat="44.92279" lon="5.13748">
        <ele>547.57</ele>
        <time>2020-02-28T10:15:21.000Z</time>
      </trkpt>
      <trkpt lat="44.92285" lon="5.13733">
        <ele>546.43</ele>
        <time>2020-02-28T10:15:31.000Z</time>
      </trkpt>
      <trkpt lat="44.92291" lon="5.13715">
        <ele>545.76</ele>
        <time>2020-02-28T10:15:41.000Z</time>
      </trkpt>
      <trkpt lat="44.92298" lon="5.13703">
        <ele>545.02</ele>
        <time>2020-02-28T10:15:51.000Z</time>
      </trkpt>
      <trkpt lat="44.92304" lon="5.13688">
        <ele>545.12</ele>
        <time>2020-02-28T10:16:01.000Z</time>
      </trkpt>
      <trkpt lat="44.9231" lon="5.13672">
        <ele>545.08</ele>
        <time>2020-02-28T10:16:11.000Z</time>
      </trkpt>
      <trkpt lat="44.92316" lon="5.13659">
        <ele>544.48</ele>
        <time>2020-02-28T10:16:21.000Z</time>
      </trkpt>
      <trkpt lat="44.92324" lon="5.1364">
        <ele>543.29</ele>
        <time>2020-02-28T10:16:31.000Z</time>
      </trkpt>
      <trkpt lat="44.92331" lon="5.13625">
        <ele>541.46</ele>
        <time>2020-02-28T10:16:41.000Z</time>
      </trkpt>
      <trkpt lat="44.92338" lon="5.13614">
        <ele>539.49</ele>
        <time>2020-02-28T10:16:51.000Z</time>
      </trkpt>
      <trkpt lat="44.92346" lon="5.13605">
        <ele>537.32</ele>
        <time>2020-02-28T10:17:01.000Z</time>
      </trkpt>
      <trkpt lat="44.92352" lon="5.13593">
        <ele>535.66</ele>
        <time>2020-02-28T10:17:11.000Z</time>
      </trkpt>
      <trkpt lat="44.92358" lon="5.13575">
        <ele>534.58</ele>
        <time>2020-02-28T10:17:21.000Z</time>
      </trkpt>
      <trkpt lat="44.92364" lon="5.13564">
        <ele>533.54</ele>
        <time>2020-02-28T10:17:31.000Z</time>
      </trkpt>
      <trkpt lat="44.92369" lon="5.13543">
        <ele>533.17</ele>
        <time>2020-02-28T10:17:41.000Z</time>
      </trkpt>
      <trkpt lat="44.92375" lon="5.13531">
        <ele>532.19</ele>
        <time>2020-02-28T10:17:51.000Z</time>
      </trkpt>
      <trkpt lat="44.92381" lon="5.13513">
        <ele>531.67</ele>
        <time>2020-02-28T10:18:01.000Z</time>
      </trkpt>
      <trkpt lat="44.92386" lon="5.13496">
        <ele>531.31</ele>
        <time>2020-02-28T10:18:11.000Z</time>
      </trkpt>
      <trkpt lat="44.92391" lon="5.13482">
        <ele>530.79</ele>
        <time>2020-02-28T10:18:21.000Z</time>
      </trkpt>
      <trkpt lat="44.92395" lon="5.1347">
        <ele>530.49</ele>
        <time>2020-02-28T10:18:31.000Z</time>
      </trkpt>
      <trkpt lat="44.92392" lon="5.13454">
        <ele>530.99</ele>
        <time>2020-02-28T10:18:41.000Z</time>
      </trkpt>
      <trkpt lat="44.92396" lon="5.13437">
        <ele>530.7</ele>
        <time>2020-02-28T10:18:51.000Z</time>
      </trkpt>
      <trkpt lat="44.92396" lon="5.1343">
        <ele>530.7</ele>
        <time>2020-02-28T10:19:06.000Z</time>
      </trkpt>
      <trkpt lat="44.92399" lon="5.13415">
        <ele>530.5</ele>
        <time>2020-02-28T10:19:16.000Z</time>
      </trkpt>
      <trkpt lat="44.92403" lon="5.13401">
        <ele>530.18</ele>
        <time>2020-02-28T10:19:26.000Z</time>
      </trkpt>
      <trkpt lat="44.92406" lon="5.13385">
        <ele>529.83</ele>
        <time>2020-02-28T10:19:36.000Z</time>
      </trkpt>
      <trkpt lat="44.92409" lon="5.13366">
        <ele>529.44</ele>
        <time>2020-02-28T10:19:46.000Z</time>
      </trkpt>
      <trkpt lat="44.92412" lon="5.13348">
        <ele>529.18</ele>
        <time>2020-02-28T10:19:56.000Z</time>
      </trkpt>
      <trkpt lat="44.92414" lon="5.13341">
        <ele>529.11</ele>
        <time>2020-02-28T10:20:11.000Z</time>
      </trkpt>
      <trkpt lat="44.92417" lon="5.13326">
        <ele>529.12</ele>
        <time>2020-02-28T10:20:21.000Z</time>
      </trkpt>
      <trkpt lat="44.92421" lon="5.13311">
        <ele>529.3</ele>
        <time>2020-02-28T10:20:31.000Z</time>
      </trkpt>
      <trkpt lat="44.92423" lon="5.13295">
        <ele>529.84</ele>
        <time>2020-02-28T10:20:41.000Z</time>
      </trkpt>
      <trkpt lat="44.92426" lon="5.13282">
        <ele>530.53</ele>
        <time>2020-02-28T10:20:51.000Z</time>
      </trkpt>
      <trkpt lat="44.92432" lon="5.13271">
        <ele>531.53</ele>
        <time>2020-02-28T10:21:01.000Z</time>
      </trkpt>
      <trkpt lat="44.92436" lon="5.13262">
        <ele>532.52</ele>
        <time>2020-02-28T10:21:11.000Z</time>
      </trkpt>
      <trkpt lat="44.92436" lon="5.1325">
        <ele>533.68</ele>
        <time>2020-02-28T10:21:21.000Z</time>
      </trkpt>
      <trkpt lat="44.92438" lon="5.13238">
        <ele>534.97</ele>
        <time>2020-02-28T10:21:31.000Z</time>
      </trkpt>
      <trkpt lat="44.92439" lon="5.13227">
        <ele>536.34</ele>
        <time>2020-02-28T10:21:41.000Z</time>
      </trkpt>
      <trkpt lat="44.92439" lon="5.13212">
        <ele>537.96</ele>
        <time>2020-02-28T10:21:51.000Z</time>
      </trkpt>
      <trkpt lat="44.92441" lon="5.13198">
        <ele>539.83</ele>
        <time>2020-02-28T10:22:01.000Z</time>
      </trkpt>
      <trkpt lat="44.92441" lon="5.13185">
        <ele>541.38</ele>
        <time>2020-02-28T10:22:11.000Z</time>
      </trkpt>
      <trkpt lat="44.92444" lon="5.13172">
        <ele>544</ele>
        <time>2020-02-28T10:22:21.000Z</time>
      </trkpt>
      <trkpt lat="44.92446" lon="5.13159">
        <ele>546.87</ele>
        <time>2020-02-28T10:22:31.000Z</time>
      </trkpt>
      <trkpt lat="44.92444" lon="5.13145">
        <ele>547.61</ele>
        <time>2020-02-28T10:22:41.000Z</time>
      </trkpt>
      <trkpt lat="44.92444" lon="5.1313">
        <ele>549.26</ele>
        <time>2020-02-28T10:22:51.000Z</time>
      </trkpt>
      <trkpt lat="44.92444" lon="5.13117">
        <ele>551.24</ele>
        <time>2020-02-28T10:23:01.000Z</time>
      </trkpt>
      <trkpt lat="44.92441" lon="5.131">
        <ele>551.75</ele>
        <time>2020-02-28T10:23:11.000Z</time>
      </trkpt>
      <trkpt lat="44.9244" lon="5.13087">
        <ele>553.11</ele>
        <time>2020-02-28T10:23:21.000Z</time>
      </trkpt>
      <trkpt lat="44.9244" lon="5.13075">
        <ele>554.73</ele>
        <time>2020-02-28T10:23:31.000Z</time>
      </trkpt>
      <trkpt lat="44.92438" lon="5.13058">
        <ele>555.95</ele>
        <time>2020-02-28T10:23:41.000Z</time>
      </trkpt>
      <trkpt lat="44.92437" lon="5.13044">
        <ele>557.51</ele>
        <time>2020-02-28T10:23:51.000Z</time>
      </trkpt>
      <trkpt lat="44.92434" lon="5.1303">
        <ele>558.21</ele>
        <time>2020-02-28T10:24:01.000Z</time>
      </trkpt>
      <trkpt lat="44.92434" lon="5.13015">
        <ele>559.6</ele>
        <time>2020-02-28T10:24:11.000Z</time>
      </trkpt>
      <trkpt lat="44.92437" lon="5.13003">
        <ele>562.31</ele>
        <time>2020-02-28T10:24:21.000Z</time>
      </trkpt>
      <trkpt lat="44.92436" lon="5.12989">
        <ele>562.44</ele>
        <time>2020-02-28T10:24:31.000Z</time>
      </trkpt>
      <trkpt lat="44.92436" lon="5.12974">
        <ele>562.89</ele>
        <time>2020-02-28T10:24:41.000Z</time>
      </trkpt>
      <trkpt lat="44.92435" lon="5.12967">
        <ele>562.15</ele>
        <time>2020-02-28T10:25:59.000Z</time>
      </trkpt>
      <trkpt lat="44.92436" lon="5.12953">
        <ele>562.45</ele>
        <time>2020-02-28T10:26:09.000Z</time>
      </trkpt>
      <trkpt lat="44.92443" lon="5.12947">
        <ele>564.88</ele>
        <time>2020-02-28T10:26:19.000Z</time>
      </trkpt>
      <trkpt lat="44.92448" lon="5.12935">
        <ele>565.49</ele>
        <time>2020-02-28T10:26:29.000Z</time>
      </trkpt>
      <trkpt lat="44.92457" lon="5.12935">
        <ele>568.45</ele>
        <time>2020-02-28T10:26:39.000Z</time>
      </trkpt>
      <trkpt lat="44.92466" lon="5.12932">
        <ele>570.71</ele>
        <time>2020-02-28T10:26:49.000Z</time>
      </trkpt>
      <trkpt lat="44.92475" lon="5.12932">
        <ele>573.2</ele>
        <time>2020-02-28T10:26:59.000Z</time>
      </trkpt>
      <trkpt lat="44.9248" lon="5.12929">
        <ele>574</ele>
        <time>2020-02-28T10:27:10.000Z</time>
      </trkpt>
      <trkpt lat="44.92489" lon="5.1293">
        <ele>576.92</ele>
        <time>2020-02-28T10:27:20.000Z</time>
      </trkpt>
      <trkpt lat="44.92501" lon="5.12933">
        <ele>581.32</ele>
        <time>2020-02-28T10:27:30.000Z</time>
      </trkpt>
      <trkpt lat="44.92507" lon="5.12935">
        <ele>583.94</ele>
        <time>2020-02-28T10:27:40.000Z</time>
      </trkpt>
      <trkpt lat="44.92515" lon="5.12934">
        <ele>586.37</ele>
        <time>2020-02-28T10:27:50.000Z</time>
      </trkpt>
      <trkpt lat="44.92521" lon="5.1292">
        <ele>585.37</ele>
        <time>2020-02-28T10:28:00.000Z</time>
      </trkpt>
      <trkpt lat="44.92527" lon="5.12918">
        <ele>587.31</ele>
        <time>2020-02-28T10:28:14.000Z</time>
      </trkpt>
      <trkpt lat="44.92533" lon="5.12915">
        <ele>589.37</ele>
        <time>2020-02-28T10:28:24.000Z</time>
      </trkpt>
      <trkpt lat="44.92535" lon="5.12907">
        <ele>589.11</ele>
        <time>2020-02-28T10:28:34.000Z</time>
      </trkpt>
      <trkpt lat="44.9254" lon="5.129">
        <ele>590.59</ele>
        <time>2020-02-28T10:28:44.000Z</time>
      </trkpt>
      <trkpt lat="44.92551" lon="5.12898">
        <ele>595.02</ele>
        <time>2020-02-28T10:28:54.000Z</time>
      </trkpt>
      <trkpt lat="44.92554" lon="5.12885">
        <ele>594.82</ele>
        <time>2020-02-28T10:29:04.000Z</time>
      </trkpt>
      <trkpt lat="44.92564" lon="5.12884">
        <ele>598.17</ele>
        <time>2020-02-28T10:29:14.000Z</time>
      </trkpt>
      <trkpt lat="44.92569" lon="5.1288">
        <ele>599.27</ele>
        <time>2020-02-28T10:29:24.000Z</time>
      </trkpt>
      <trkpt lat="44.92574" lon="5.12871">
        <ele>599.88</ele>
        <time>2020-02-28T10:29:34.000Z</time>
      </trkpt>
      <trkpt lat="44.92583" lon="5.12872">
        <ele>601.45</ele>
        <time>2020-02-28T10:29:44.000Z</time>
      </trkpt>
      <trkpt lat="44.92588" lon="5.12875">
        <ele>601.99</ele>
        <time>2020-02-28T10:30:13.000Z</time>
      </trkpt>
      <trkpt lat="44.92589" lon="5.12889">
        <ele>602.65</ele>
        <time>2020-02-28T10:30:23.000Z</time>
      </trkpt>
      <trkpt lat="44.92591" lon="5.12902">
        <ele>603.19</ele>
        <time>2020-02-28T10:30:33.000Z</time>
      </trkpt>
      <trkpt lat="44.92595" lon="5.12912">
        <ele>603.27</ele>
        <time>2020-02-28T10:30:43.000Z</time>
      </trkpt>
      <trkpt lat="44.92595" lon="5.12924">
        <ele>603.82</ele>
        <time>2020-02-28T10:30:53.000Z</time>
      </trkpt>
      <trkpt lat="44.92598" lon="5.12941">
        <ele>604.06</ele>
        <time>2020-02-28T10:31:03.000Z</time>
      </trkpt>
      <trkpt lat="44.926" lon="5.12955">
        <ele>604.16</ele>
        <time>2020-02-28T10:31:13.000Z</time>
      </trkpt>
      <trkpt lat="44.92603" lon="5.1297">
        <ele>604.23</ele>
        <time>2020-02-28T10:31:23.000Z</time>
      </trkpt>
      <trkpt lat="44.92609" lon="5.12985">
        <ele>603.45</ele>
        <time>2020-02-28T10:31:33.000Z</time>
      </trkpt>
      <trkpt lat="44.92617" lon="5.12999">
        <ele>602.12</ele>
        <time>2020-02-28T10:31:43.000Z</time>
      </trkpt>
      <trkpt lat="44.9262" lon="5.13013">
        <ele>602.07</ele>
        <time>2020-02-28T10:31:53.000Z</time>
      </trkpt>
      <trkpt lat="44.92623" lon="5.13027">
        <ele>602.19</ele>
        <time>2020-02-28T10:32:03.000Z</time>
      </trkpt>
      <trkpt lat="44.92627" lon="5.1304">
        <ele>602.36</ele>
        <time>2020-02-28T10:32:13.000Z</time>
      </trkpt>
      <trkpt lat="44.92638" lon="5.13052">
        <ele>600.34</ele>
        <time>2020-02-28T10:32:23.000Z</time>
      </trkpt>
      <trkpt lat="44.92645" lon="5.13063">
        <ele>599.36</ele>
        <time>2020-02-28T10:32:33.000Z</time>
      </trkpt>
      <trkpt lat="44.92652" lon="5.13075">
        <ele>598.65</ele>
        <time>2020-02-28T10:32:43.000Z</time>
      </trkpt>
      <trkpt lat="44.9266" lon="5.13088">
        <ele>598.1</ele>
        <time>2020-02-28T10:32:53.000Z</time>
      </trkpt>
      <trkpt lat="44.92669" lon="5.13099">
        <ele>598.7</ele>
        <time>2020-02-28T10:33:03.000Z</time>
      </trkpt>
      <trkpt lat="44.92675" lon="5.13108">
        <ele>599.75</ele>
        <time>2020-02-28T10:33:13.000Z</time>
      </trkpt>
      <trkpt lat="44.92684" lon="5.13118">
        <ele>601.3</ele>
        <time>2020-02-28T10:33:23.000Z</time>
      </trkpt>
      <trkpt lat="44.92693" lon="5.13131">
        <ele>603.43</ele>
        <time>2020-02-28T10:33:33.000Z</time>
      </trkpt>
      <trkpt lat="44.927" lon="5.13138">
        <ele>604.49</ele>
        <time>2020-02-28T10:33:43.000Z</time>
      </trkpt>
      <trkpt lat="44.92692" lon="5.13148">
        <ele>604.56</ele>
        <time>2020-02-28T10:33:53.000Z</time>
      </trkpt>
      <trkpt lat="44.92687" lon="5.13142">
        <ele>604.31</ele>
        <time>2020-02-28T10:34:04.000Z</time>
      </trkpt>
      <trkpt lat="44.9269" lon="5.13151">
        <ele>604.42</ele>
        <time>2020-02-28T10:36:22.000Z</time>
      </trkpt>
      <trkpt lat="44.92689" lon="5.13143">
        <ele>604.38</ele>
        <time>2020-02-28T10:37:06.000Z</time>
      </trkpt>
      <trkpt lat="44.927" lon="5.13141">
        <ele>604.67</ele>
        <time>2020-02-28T10:37:16.000Z</time>
      </trkpt>
      <trkpt lat="44.9272" lon="5.13136">
        <ele>605.16</ele>
        <time>2020-02-28T10:37:26.000Z</time>
      </trkpt>
      <trkpt lat="44.92737" lon="5.13128">
        <ele>605.21</ele>
        <time>2020-02-28T10:37:36.000Z</time>
      </trkpt>
      <trkpt lat="44.92751" lon="5.13121">
        <ele>605.2</ele>
        <time>2020-02-28T10:37:46.000Z</time>
      </trkpt>
      <trkpt lat="44.92758" lon="5.13121">
        <ele>606.09</ele>
        <time>2020-02-28T10:37:57.000Z</time>
      </trkpt>
      <trkpt lat="44.92765" lon="5.13118">
        <ele>606.77</ele>
        <time>2020-02-28T10:38:07.000Z</time>
      </trkpt>
      <trkpt lat="44.92775" lon="5.13116">
        <ele>608.31</ele>
        <time>2020-02-28T10:38:17.000Z</time>
      </trkpt>
      <trkpt lat="44.9279" lon="5.13104">
        <ele>609.24</ele>
        <time>2020-02-28T10:38:27.000Z</time>
      </trkpt>
      <trkpt lat="44.92807" lon="5.13102">
        <ele>612.61</ele>
        <time>2020-02-28T10:38:37.000Z</time>
      </trkpt>
      <trkpt lat="44.92817" lon="5.13094">
        <ele>612.98</ele>
        <time>2020-02-28T10:38:47.000Z</time>
      </trkpt>
      <trkpt lat="44.9283" lon="5.13099">
        <ele>615.16</ele>
        <time>2020-02-28T10:38:57.000Z</time>
      </trkpt>
      <trkpt lat="44.92844" lon="5.13104">
        <ele>615.89</ele>
        <time>2020-02-28T10:39:07.000Z</time>
      </trkpt>
      <trkpt lat="44.92858" lon="5.13114">
        <ele>616.25</ele>
        <time>2020-02-28T10:39:17.000Z</time>
      </trkpt>
      <trkpt lat="44.92872" lon="5.13129">
        <ele>616.56</ele>
        <time>2020-02-28T10:39:27.000Z</time>
      </trkpt>
      <trkpt lat="44.92879" lon="5.13146">
        <ele>617.1</ele>
        <time>2020-02-28T10:39:37.000Z</time>
      </trkpt>
      <trkpt lat="44.92884" lon="5.13164">
        <ele>615.96</ele>
        <time>2020-02-28T10:39:47.000Z</time>
      </trkpt>
      <trkpt lat="44.92891" lon="5.13179">
        <ele>612.69</ele>
        <time>2020-02-28T10:39:57.000Z</time>
      </trkpt>
      <trkpt lat="44.92903" lon="5.13185">
        <ele>610.29</ele>
        <time>2020-02-28T10:40:07.000Z</time>
      </trkpt>
      <trkpt lat="44.92918" lon="5.13193">
        <ele>607.97</ele>
        <time>2020-02-28T10:40:17.000Z</time>
      </trkpt>
      <trkpt lat="44.9293" lon="5.13198">
        <ele>606.8</ele>
        <time>2020-02-28T10:40:27.000Z</time>
      </trkpt>
      <trkpt lat="44.92945" lon="5.13198">
        <ele>606.33</ele>
        <time>2020-02-28T10:40:37.000Z</time>
      </trkpt>
      <trkpt lat="44.92959" lon="5.13202">
        <ele>605.33</ele>
        <time>2020-02-28T10:40:47.000Z</time>
      </trkpt>
      <trkpt lat="44.92975" lon="5.13202">
        <ele>604.37</ele>
        <time>2020-02-28T10:40:57.000Z</time>
      </trkpt>
      <trkpt lat="44.9299" lon="5.13203">
        <ele>602.93</ele>
        <time>2020-02-28T10:41:07.000Z</time>
      </trkpt>
      <trkpt lat="44.93001" lon="5.13204">
        <ele>601.36</ele>
        <time>2020-02-28T10:41:17.000Z</time>
      </trkpt>
      <trkpt lat="44.93015" lon="5.13201">
        <ele>599.08</ele>
        <time>2020-02-28T10:41:27.000Z</time>
      </trkpt>
      <trkpt lat="44.93022" lon="5.13191">
        <ele>598</ele>
        <time>2020-02-28T10:41:37.000Z</time>
      </trkpt>
      <trkpt lat="44.93028" lon="5.13172">
        <ele>596.64</ele>
        <time>2020-02-28T10:41:47.000Z</time>
      </trkpt>
      <trkpt lat="44.93035" lon="5.13148">
        <ele>594.22</ele>
        <time>2020-02-28T10:41:57.000Z</time>
      </trkpt>
      <trkpt lat="44.93044" lon="5.13142">
        <ele>592.83</ele>
        <time>2020-02-28T10:42:07.000Z</time>
      </trkpt>
      <trkpt lat="44.93055" lon="5.13132">
        <ele>591.39</ele>
        <time>2020-02-28T10:42:17.000Z</time>
      </trkpt>
      <trkpt lat="44.93061" lon="5.13123">
        <ele>590.82</ele>
        <time>2020-02-28T10:42:27.000Z</time>
      </trkpt>
      <trkpt lat="44.93066" lon="5.13108">
        <ele>590.53</ele>
        <time>2020-02-28T10:42:37.000Z</time>
      </trkpt>
      <trkpt lat="44.93063" lon="5.13077">
        <ele>589.79</ele>
        <time>2020-02-28T10:42:47.000Z</time>
      </trkpt>
      <trkpt lat="44.93068" lon="5.13061">
        <ele>589.9</ele>
        <time>2020-02-28T10:42:57.000Z</time>
      </trkpt>
      <trkpt lat="44.93072" lon="5.13048">
        <ele>589.84</ele>
        <time>2020-02-28T10:43:07.000Z</time>
      </trkpt>
      <trkpt lat="44.9307" lon="5.13036">
        <ele>589.13</ele>
        <time>2020-02-28T10:43:17.000Z</time>
      </trkpt>
      <trkpt lat="44.93071" lon="5.13018">
        <ele>588.02</ele>
        <time>2020-02-28T10:43:27.000Z</time>
      </trkpt>
      <trkpt lat="44.93073" lon="5.13005">
        <ele>587</ele>
        <time>2020-02-28T10:43:37.000Z</time>
      </trkpt>
      <trkpt lat="44.93073" lon="5.12992">
        <ele>585.5</ele>
        <time>2020-02-28T10:43:47.000Z</time>
      </trkpt>
      <trkpt lat="44.93072" lon="5.12975">
        <ele>583.17</ele>
        <time>2020-02-28T10:43:57.000Z</time>
      </trkpt>
      <trkpt lat="44.93068" lon="5.1296">
        <ele>580.41</ele>
        <time>2020-02-28T10:44:07.000Z</time>
      </trkpt>
      <trkpt lat="44.93073" lon="5.12949">
        <ele>578.75</ele>
        <time>2020-02-28T10:44:17.000Z</time>
      </trkpt>
      <trkpt lat="44.93075" lon="5.12928">
        <ele>574.85</ele>
        <time>2020-02-28T10:44:27.000Z</time>
      </trkpt>
      <trkpt lat="44.93079" lon="5.12921">
        <ele>573.36</ele>
        <time>2020-02-28T10:44:37.000Z</time>
      </trkpt>
      <trkpt lat="44.9309" lon="5.12911">
        <ele>569.86</ele>
        <time>2020-02-28T10:44:47.000Z</time>
      </trkpt>
      <trkpt lat="44.93098" lon="5.129">
        <ele>565.67</ele>
        <time>2020-02-28T10:44:57.000Z</time>
      </trkpt>
      <trkpt lat="44.93107" lon="5.12891">
        <ele>561.6</ele>
        <time>2020-02-28T10:45:07.000Z</time>
      </trkpt>
      <trkpt lat="44.93115" lon="5.12884">
        <ele>558.4</ele>
        <time>2020-02-28T10:45:17.000Z</time>
      </trkpt>
      <trkpt lat="44.93125" lon="5.12879">
        <ele>555.29</ele>
        <time>2020-02-28T10:45:27.000Z</time>
      </trkpt>
      <trkpt lat="44.93135" lon="5.12866">
        <ele>552.8</ele>
        <time>2020-02-28T10:45:37.000Z</time>
      </trkpt>
      <trkpt lat="44.93142" lon="5.12857">
        <ele>551.76</ele>
        <time>2020-02-28T10:45:47.000Z</time>
      </trkpt>
      <trkpt lat="44.93149" lon="5.1285">
        <ele>551.33</ele>
        <time>2020-02-28T10:45:57.000Z</time>
      </trkpt>
      <trkpt lat="44.93155" lon="5.12842">
        <ele>551.16</ele>
        <time>2020-02-28T10:46:07.000Z</time>
      </trkpt>
      <trkpt lat="44.93161" lon="5.12837">
        <ele>551.05</ele>
        <time>2020-02-28T10:46:17.000Z</time>
      </trkpt>
      <trkpt lat="44.93178" lon="5.12841">
        <ele>550.6</ele>
        <time>2020-02-28T10:46:27.000Z</time>
      </trkpt>
      <trkpt lat="44.93192" lon="5.12838">
        <ele>550.56</ele>
        <time>2020-02-28T10:46:37.000Z</time>
      </trkpt>
      <trkpt lat="44.93201" lon="5.12828">
        <ele>551.56</ele>
        <time>2020-02-28T10:46:47.000Z</time>
      </trkpt>
      <trkpt lat="44.93208" lon="5.12822">
        <ele>552.43</ele>
        <time>2020-02-28T10:46:57.000Z</time>
      </trkpt>
      <trkpt lat="44.93214" lon="5.12819">
        <ele>553.14</ele>
        <time>2020-02-28T10:47:12.000Z</time>
      </trkpt>
      <trkpt lat="44.93227" lon="5.12803">
        <ele>556.49</ele>
        <time>2020-02-28T10:47:22.000Z</time>
      </trkpt>
      <trkpt lat="44.93226" lon="5.12782">
        <ele>558.07</ele>
        <time>2020-02-28T10:47:32.000Z</time>
      </trkpt>
      <trkpt lat="44.93229" lon="5.12764">
        <ele>559.52</ele>
        <time>2020-02-28T10:47:42.000Z</time>
      </trkpt>
      <trkpt lat="44.93227" lon="5.1275">
        <ele>558.69</ele>
        <time>2020-02-28T10:47:52.000Z</time>
      </trkpt>
      <trkpt lat="44.93228" lon="5.12734">
        <ele>557.57</ele>
        <time>2020-02-28T10:48:02.000Z</time>
      </trkpt>
      <trkpt lat="44.93231" lon="5.12721">
        <ele>557.2</ele>
        <time>2020-02-28T10:48:12.000Z</time>
      </trkpt>
      <trkpt lat="44.93239" lon="5.1271">
        <ele>558.45</ele>
        <time>2020-02-28T10:48:22.000Z</time>
      </trkpt>
      <trkpt lat="44.93243" lon="5.12691">
        <ele>556.42</ele>
        <time>2020-02-28T10:48:32.000Z</time>
      </trkpt>
      <trkpt lat="44.93251" lon="5.1268">
        <ele>556.91</ele>
        <time>2020-02-28T10:48:42.000Z</time>
      </trkpt>
      <trkpt lat="44.93263" lon="5.12684">
        <ele>560.56</ele>
        <time>2020-02-28T10:48:52.000Z</time>
      </trkpt>
      <trkpt lat="44.93271" lon="5.12687">
        <ele>563.1</ele>
        <time>2020-02-28T10:49:02.000Z</time>
      </trkpt>
      <trkpt lat="44.93282" lon="5.12691">
        <ele>566.26</ele>
        <time>2020-02-28T10:49:12.000Z</time>
      </trkpt>
      <trkpt lat="44.93292" lon="5.12694">
        <ele>568.68</ele>
        <time>2020-02-28T10:49:22.000Z</time>
      </trkpt>
      <trkpt lat="44.93303" lon="5.12697">
        <ele>571.36</ele>
        <time>2020-02-28T10:49:32.000Z</time>
      </trkpt>
      <trkpt lat="44.93316" lon="5.12699">
        <ele>573.52</ele>
        <time>2020-02-28T10:49:42.000Z</time>
      </trkpt>
      <trkpt lat="44.93323" lon="5.12708">
        <ele>576.24</ele>
        <time>2020-02-28T10:49:52.000Z</time>
      </trkpt>
      <trkpt lat="44.93323" lon="5.12716">
        <ele>577.82</ele>
        <time>2020-02-28T10:50:02.000Z</time>
      </trkpt>
      <trkpt lat="44.9333" lon="5.12722">
        <ele>578.9</ele>
        <time>2020-02-28T10:50:12.000Z</time>
      </trkpt>
      <trkpt lat="44.93338" lon="5.12722">
        <ele>578.32</ele>
        <time>2020-02-28T10:50:22.000Z</time>
      </trkpt>
      <trkpt lat="44.93344" lon="5.12718">
        <ele>576.98</ele>
        <time>2020-02-28T10:50:32.000Z</time>
      </trkpt>
      <trkpt lat="44.93351" lon="5.12716">
        <ele>575.34</ele>
        <time>2020-02-28T10:50:42.000Z</time>
      </trkpt>
      <trkpt lat="44.93359" lon="5.12712">
        <ele>573.32</ele>
        <time>2020-02-28T10:50:52.000Z</time>
      </trkpt>
      <trkpt lat="44.93371" lon="5.12703">
        <ele>570.69</ele>
        <time>2020-02-28T10:51:02.000Z</time>
      </trkpt>
      <trkpt lat="44.93369" lon="5.12682">
        <ele>571.02</ele>
        <time>2020-02-28T10:51:12.000Z</time>
      </trkpt>
      <trkpt lat="44.93377" lon="5.12675">
        <ele>570.48</ele>
        <time>2020-02-28T10:51:22.000Z</time>
      </trkpt>
      <trkpt lat="44.93392" lon="5.12674">
        <ele>570.11</ele>
        <time>2020-02-28T10:51:32.000Z</time>
      </trkpt>
      <trkpt lat="44.93399" lon="5.12672">
        <ele>570.08</ele>
        <time>2020-02-28T10:51:42.000Z</time>
      </trkpt>
      <trkpt lat="44.93404" lon="5.1267">
        <ele>570.05</ele>
        <time>2020-02-28T10:51:52.000Z</time>
      </trkpt>
      <trkpt lat="44.93414" lon="5.12668">
        <ele>570</ele>
        <time>2020-02-28T10:52:02.000Z</time>
      </trkpt>
      <trkpt lat="44.9342" lon="5.12667">
        <ele>570</ele>
        <time>2020-02-28T10:52:12.000Z</time>
      </trkpt>
      <trkpt lat="44.93422" lon="5.12659">
        <ele>569.81</ele>
        <time>2020-02-28T10:53:10.000Z</time>
      </trkpt>
      <trkpt lat="44.93425" lon="5.12653">
        <ele>569.22</ele>
        <time>2020-02-28T10:53:32.000Z</time>
      </trkpt>
      <trkpt lat="44.93433" lon="5.12655">
        <ele>570.01</ele>
        <time>2020-02-28T10:53:42.000Z</time>
      </trkpt>
      <trkpt lat="44.93439" lon="5.12658">
        <ele>570.92</ele>
        <time>2020-02-28T10:53:55.000Z</time>
      </trkpt>
      <trkpt lat="44.93442" lon="5.12665">
        <ele>571.93</ele>
        <time>2020-02-28T10:54:05.000Z</time>
      </trkpt>
      <trkpt lat="44.93448" lon="5.12664">
        <ele>572.55</ele>
        <time>2020-02-28T10:54:20.000Z</time>
      </trkpt>
      <trkpt lat="44.93453" lon="5.12659">
        <ele>572.46</ele>
        <time>2020-02-28T10:54:30.000Z</time>
      </trkpt>
      <trkpt lat="44.93449" lon="5.12665">
        <ele>572.74</ele>
        <time>2020-02-28T10:55:11.000Z</time>
      </trkpt>
      <trkpt lat="44.93453" lon="5.12677">
        <ele>572.08</ele>
        <time>2020-02-28T10:55:21.000Z</time>
      </trkpt>
      <trkpt lat="44.93462" lon="5.1268">
        <ele>572.14</ele>
        <time>2020-02-28T10:55:31.000Z</time>
      </trkpt>
      <trkpt lat="44.9347" lon="5.12675">
        <ele>573.43</ele>
        <time>2020-02-28T10:55:41.000Z</time>
      </trkpt>
      <trkpt lat="44.93478" lon="5.12678">
        <ele>572.24</ele>
        <time>2020-02-28T10:55:51.000Z</time>
      </trkpt>
      <trkpt lat="44.93487" lon="5.12671">
        <ele>571.5</ele>
        <time>2020-02-28T10:56:01.000Z</time>
      </trkpt>
      <trkpt lat="44.93493" lon="5.1267">
        <ele>569.54</ele>
        <time>2020-02-28T10:56:17.000Z</time>
      </trkpt>
      <trkpt lat="44.93498" lon="5.12675">
        <ele>567.16</ele>
        <time>2020-02-28T10:56:27.000Z</time>
      </trkpt>
      <trkpt lat="44.93496" lon="5.12666">
        <ele>568</ele>
        <time>2020-02-28T10:58:11.000Z</time>
      </trkpt>
      <trkpt lat="44.93491" lon="5.12669">
        <ele>570.29</ele>
        <time>2020-02-28T10:58:52.000Z</time>
      </trkpt>
      <trkpt lat="44.93485" lon="5.1267">
        <ele>572.01</ele>
        <time>2020-02-28T10:59:16.000Z</time>
      </trkpt>
      <trkpt lat="44.93476" lon="5.12671">
        <ele>573.51</ele>
        <time>2020-02-28T10:59:26.000Z</time>
      </trkpt>
      <trkpt lat="44.93467" lon="5.12672">
        <ele>573.77</ele>
        <time>2020-02-28T10:59:36.000Z</time>
      </trkpt>
      <trkpt lat="44.93456" lon="5.12674">
        <ele>572.96</ele>
        <time>2020-02-28T10:59:46.000Z</time>
      </trkpt>
      <trkpt lat="44.93452" lon="5.12667">
        <ele>573.1</ele>
        <time>2020-02-28T10:59:56.000Z</time>
      </trkpt>
      <trkpt lat="44.93447" lon="5.12663">
        <ele>572.4</ele>
        <time>2020-02-28T11:00:12.000Z</time>
      </trkpt>
      <trkpt lat="44.9344" lon="5.1266">
        <ele>571.33</ele>
        <time>2020-02-28T11:00:22.000Z</time>
      </trkpt>
      <trkpt lat="44.93435" lon="5.12656">
        <ele>570.29</ele>
        <time>2020-02-28T11:00:32.000Z</time>
      </trkpt>
      <trkpt lat="44.93429" lon="5.12653">
        <ele>569.51</ele>
        <time>2020-02-28T11:00:43.000Z</time>
      </trkpt>
      <trkpt lat="44.93424" lon="5.12658">
        <ele>569.85</ele>
        <time>2020-02-28T11:00:53.000Z</time>
      </trkpt>
      <trkpt lat="44.93418" lon="5.12661">
        <ele>569.88</ele>
        <time>2020-02-28T11:01:07.000Z</time>
      </trkpt>
      <trkpt lat="44.93406" lon="5.12665">
        <ele>570.11</ele>
        <time>2020-02-28T11:01:17.000Z</time>
      </trkpt>
      <trkpt lat="44.93393" lon="5.12664">
        <ele>570.1</ele>
        <time>2020-02-28T11:01:27.000Z</time>
      </trkpt>
      <trkpt lat="44.9339" lon="5.1265">
        <ele>568.5</ele>
        <time>2020-02-28T11:01:37.000Z</time>
      </trkpt>
      <trkpt lat="44.93387" lon="5.12637">
        <ele>565.84</ele>
        <time>2020-02-28T11:01:47.000Z</time>
      </trkpt>
      <trkpt lat="44.93384" lon="5.12626">
        <ele>563.12</ele>
        <time>2020-02-28T11:01:57.000Z</time>
      </trkpt>
      <trkpt lat="44.93377" lon="5.12618">
        <ele>560.6</ele>
        <time>2020-02-28T11:02:07.000Z</time>
      </trkpt>
      <trkpt lat="44.93369" lon="5.12612">
        <ele>558.44</ele>
        <time>2020-02-28T11:02:17.000Z</time>
      </trkpt>
      <trkpt lat="44.9336" lon="5.12608">
        <ele>556.65</ele>
        <time>2020-02-28T11:02:27.000Z</time>
      </trkpt>
      <trkpt lat="44.9335" lon="5.12606">
        <ele>555.52</ele>
        <time>2020-02-28T11:02:37.000Z</time>
      </trkpt>
      <trkpt lat="44.9334" lon="5.12599">
        <ele>553.42</ele>
        <time>2020-02-28T11:02:47.000Z</time>
      </trkpt>
      <trkpt lat="44.93332" lon="5.12597">
        <ele>552.94</ele>
        <time>2020-02-28T11:02:57.000Z</time>
      </trkpt>
      <trkpt lat="44.93322" lon="5.12592">
        <ele>552.27</ele>
        <time>2020-02-28T11:03:07.000Z</time>
      </trkpt>
      <trkpt lat="44.93322" lon="5.12579">
        <ele>549.75</ele>
        <time>2020-02-28T11:03:17.000Z</time>
      </trkpt>
      <trkpt lat="44.93324" lon="5.12567">
        <ele>547.69</ele>
        <time>2020-02-28T11:03:27.000Z</time>
      </trkpt>
      <trkpt lat="44.93331" lon="5.12558">
        <ele>545.35</ele>
        <time>2020-02-28T11:03:37.000Z</time>
      </trkpt>
      <trkpt lat="44.93336" lon="5.12548">
        <ele>543.13</ele>
        <time>2020-02-28T11:03:47.000Z</time>
      </trkpt>
      <trkpt lat="44.93339" lon="5.12539">
        <ele>540.82</ele>
        <time>2020-02-28T11:03:57.000Z</time>
      </trkpt>
      <trkpt lat="44.93345" lon="5.12532">
        <ele>538.6</ele>
        <time>2020-02-28T11:04:07.000Z</time>
      </trkpt>
      <trkpt lat="44.93349" lon="5.12523">
        <ele>535.4</ele>
        <time>2020-02-28T11:04:17.000Z</time>
      </trkpt>
      <trkpt lat="44.93343" lon="5.12509">
        <ele>533.08</ele>
        <time>2020-02-28T11:04:27.000Z</time>
      </trkpt>
      <trkpt lat="44.93336" lon="5.12504">
        <ele>533.39</ele>
        <time>2020-02-28T11:04:37.000Z</time>
      </trkpt>
      <trkpt lat="44.9333" lon="5.12496">
        <ele>532.57</ele>
        <time>2020-02-28T11:04:47.000Z</time>
      </trkpt>
      <trkpt lat="44.93327" lon="5.12485">
        <ele>530.22</ele>
        <time>2020-02-28T11:04:57.000Z</time>
      </trkpt>
      <trkpt lat="44.93325" lon="5.12475">
        <ele>527.45</ele>
        <time>2020-02-28T11:05:07.000Z</time>
      </trkpt>
      <trkpt lat="44.93331" lon="5.1247">
        <ele>524.65</ele>
        <time>2020-02-28T11:05:17.000Z</time>
      </trkpt>
      <trkpt lat="44.93342" lon="5.12474">
        <ele>522.97</ele>
        <time>2020-02-28T11:05:27.000Z</time>
      </trkpt>
      <trkpt lat="44.93351" lon="5.12475">
        <ele>520.87</ele>
        <time>2020-02-28T11:05:37.000Z</time>
      </trkpt>
      <trkpt lat="44.93356" lon="5.12476">
        <ele>519.36</ele>
        <time>2020-02-28T11:05:55.000Z</time>
      </trkpt>
      <trkpt lat="44.93364" lon="5.12477">
        <ele>516.95</ele>
        <time>2020-02-28T11:06:05.000Z</time>
      </trkpt>
      <trkpt lat="44.93362" lon="5.12465">
        <ele>513.66</ele>
        <time>2020-02-28T11:06:15.000Z</time>
      </trkpt>
      <trkpt lat="44.9336" lon="5.12456">
        <ele>511.38</ele>
        <time>2020-02-28T11:06:27.000Z</time>
      </trkpt>
      <trkpt lat="44.93358" lon="5.12448">
        <ele>508.99</ele>
        <time>2020-02-28T11:06:37.000Z</time>
      </trkpt>
      <trkpt lat="44.93365" lon="5.12446">
        <ele>505.22</ele>
        <time>2020-02-28T11:06:47.000Z</time>
      </trkpt>
      <trkpt lat="44.93374" lon="5.12448">
        <ele>502.59</ele>
        <time>2020-02-28T11:06:57.000Z</time>
      </trkpt>
      <trkpt lat="44.93383" lon="5.12448">
        <ele>498.63</ele>
        <time>2020-02-28T11:07:07.000Z</time>
      </trkpt>
      <trkpt lat="44.93389" lon="5.12448">
        <ele>496.34</ele>
        <time>2020-02-28T11:07:17.000Z</time>
      </trkpt>
      <trkpt lat="44.93395" lon="5.1245">
        <ele>494.13</ele>
        <time>2020-02-28T11:07:28.000Z</time>
      </trkpt>
      <trkpt lat="44.93404" lon="5.12451">
        <ele>490.98</ele>
        <time>2020-02-28T11:07:38.000Z</time>
      </trkpt>
      <trkpt lat="44.9341" lon="5.12449">
        <ele>487.85</ele>
        <time>2020-02-28T11:07:48.000Z</time>
      </trkpt>
      <trkpt lat="44.9342" lon="5.12448">
        <ele>484.67</ele>
        <time>2020-02-28T11:07:58.000Z</time>
      </trkpt>
      <trkpt lat="44.93426" lon="5.12446">
        <ele>482.02</ele>
        <time>2020-02-28T11:08:08.000Z</time>
      </trkpt>
      <trkpt lat="44.93431" lon="5.12444">
        <ele>479.39</ele>
        <time>2020-02-28T11:08:20.000Z</time>
      </trkpt>
      <trkpt lat="44.93443" lon="5.12444">
        <ele>476.29</ele>
        <time>2020-02-28T11:08:30.000Z</time>
      </trkpt>
      <trkpt lat="44.93449" lon="5.12444">
        <ele>474.87</ele>
        <time>2020-02-28T11:08:40.000Z</time>
      </trkpt>
      <trkpt lat="44.93456" lon="5.12444">
        <ele>473.21</ele>
        <time>2020-02-28T11:08:50.000Z</time>
      </trkpt>
      <trkpt lat="44.93466" lon="5.12439">
        <ele>469.47</ele>
        <time>2020-02-28T11:09:00.000Z</time>
      </trkpt>
      <trkpt lat="44.93465" lon="5.12423">
        <ele>464.69</ele>
        <time>2020-02-28T11:09:10.000Z</time>
      </trkpt>
      <trkpt lat="44.93461" lon="5.12411">
        <ele>461.85</ele>
        <time>2020-02-28T11:09:20.000Z</time>
      </trkpt>
      <trkpt lat="44.93458" lon="5.12402">
        <ele>459.77</ele>
        <time>2020-02-28T11:09:30.000Z</time>
      </trkpt>
      <trkpt lat="44.93454" lon="5.12395">
        <ele>458.21</ele>
        <time>2020-02-28T11:09:40.000Z</time>
      </trkpt>
      <trkpt lat="44.93451" lon="5.12387">
        <ele>456.39</ele>
        <time>2020-02-28T11:09:50.000Z</time>
      </trkpt>
      <trkpt lat="44.93447" lon="5.12378">
        <ele>454.54</ele>
        <time>2020-02-28T11:10:00.000Z</time>
      </trkpt>
      <trkpt lat="44.93441" lon="5.12368">
        <ele>452.73</ele>
        <time>2020-02-28T11:10:10.000Z</time>
      </trkpt>
      <trkpt lat="44.93433" lon="5.12361">
        <ele>451.75</ele>
        <time>2020-02-28T11:10:20.000Z</time>
      </trkpt>
      <trkpt lat="44.93424" lon="5.1235">
        <ele>449.75</ele>
        <time>2020-02-28T11:10:30.000Z</time>
      </trkpt>
      <trkpt lat="44.93418" lon="5.12336">
        <ele>446.69</ele>
        <time>2020-02-28T11:10:40.000Z</time>
      </trkpt>
      <trkpt lat="44.9341" lon="5.12332">
        <ele>446.15</ele>
        <time>2020-02-28T11:10:50.000Z</time>
      </trkpt>
      <trkpt lat="44.93403" lon="5.12325">
        <ele>444.48</ele>
        <time>2020-02-28T11:11:00.000Z</time>
      </trkpt>
      <trkpt lat="44.93393" lon="5.12307">
        <ele>439.92</ele>
        <time>2020-02-28T11:11:10.000Z</time>
      </trkpt>
      <trkpt lat="44.93388" lon="5.12298">
        <ele>437.46</ele>
        <time>2020-02-28T11:11:20.000Z</time>
      </trkpt>
      <trkpt lat="44.93381" lon="5.12284">
        <ele>433.77</ele>
        <time>2020-02-28T11:11:30.000Z</time>
      </trkpt>
      <trkpt lat="44.93373" lon="5.12263">
        <ele>428.63</ele>
        <time>2020-02-28T11:11:40.000Z</time>
      </trkpt>
      <trkpt lat="44.93366" lon="5.12248">
        <ele>424.97</ele>
        <time>2020-02-28T11:11:50.000Z</time>
      </trkpt>
      <trkpt lat="44.93367" lon="5.1224">
        <ele>423.48</ele>
        <time>2020-02-28T11:12:09.000Z</time>
      </trkpt>
      <trkpt lat="44.93361" lon="5.12235">
        <ele>422.36</ele>
        <time>2020-02-28T11:12:19.000Z</time>
      </trkpt>
      <trkpt lat="44.93354" lon="5.12233">
        <ele>421.58</ele>
        <time>2020-02-28T11:12:29.000Z</time>
      </trkpt>
      <trkpt lat="44.93349" lon="5.12227">
        <ele>420.62</ele>
        <time>2020-02-28T11:12:39.000Z</time>
      </trkpt>
      <trkpt lat="44.93345" lon="5.12221">
        <ele>419.72</ele>
        <time>2020-02-28T11:12:49.000Z</time>
      </trkpt>
      <trkpt lat="44.93342" lon="5.12213">
        <ele>418.99</ele>
        <time>2020-02-28T11:13:22.000Z</time>
      </trkpt>
      <trkpt lat="44.93336" lon="5.12198">
        <ele>418.24</ele>
        <time>2020-02-28T11:13:32.000Z</time>
      </trkpt>
      <trkpt lat="44.93341" lon="5.12184">
        <ele>417.32</ele>
        <time>2020-02-28T11:13:42.000Z</time>
      </trkpt>
      <trkpt lat="44.93352" lon="5.12178">
        <ele>416.34</ele>
        <time>2020-02-28T11:13:52.000Z</time>
      </trkpt>
      <trkpt lat="44.93363" lon="5.1217">
        <ele>415.43</ele>
        <time>2020-02-28T11:14:02.000Z</time>
      </trkpt>
      <trkpt lat="44.93372" lon="5.12167">
        <ele>415.03</ele>
        <time>2020-02-28T11:14:12.000Z</time>
      </trkpt>
      <trkpt lat="44.9338" lon="5.12151">
        <ele>413.74</ele>
        <time>2020-02-28T11:14:22.000Z</time>
      </trkpt>
      <trkpt lat="44.93388" lon="5.12141">
        <ele>412.69</ele>
        <time>2020-02-28T11:14:32.000Z</time>
      </trkpt>
      <trkpt lat="44.93397" lon="5.12137">
        <ele>411.78</ele>
        <time>2020-02-28T11:14:42.000Z</time>
      </trkpt>
      <trkpt lat="44.93405" lon="5.12129">
        <ele>410.42</ele>
        <time>2020-02-28T11:14:52.000Z</time>
      </trkpt>
      <trkpt lat="44.93414" lon="5.1212">
        <ele>408.57</ele>
        <time>2020-02-28T11:15:02.000Z</time>
      </trkpt>
      <trkpt lat="44.93425" lon="5.12112">
        <ele>407.06</ele>
        <time>2020-02-28T11:15:12.000Z</time>
      </trkpt>
      <trkpt lat="44.93434" lon="5.12103">
        <ele>405.61</ele>
        <time>2020-02-28T11:15:22.000Z</time>
      </trkpt>
      <trkpt lat="44.93448" lon="5.12098">
        <ele>404.95</ele>
        <time>2020-02-28T11:15:32.000Z</time>
      </trkpt>
      <trkpt lat="44.93463" lon="5.12082">
        <ele>403.48</ele>
        <time>2020-02-28T11:15:42.000Z</time>
      </trkpt>
      <trkpt lat="44.93476" lon="5.12078">
        <ele>403.19</ele>
        <time>2020-02-28T11:15:52.000Z</time>
      </trkpt>
      <trkpt lat="44.93488" lon="5.12074">
        <ele>402.73</ele>
        <time>2020-02-28T11:16:02.000Z</time>
      </trkpt>
      <trkpt lat="44.93499" lon="5.1207">
        <ele>402</ele>
        <time>2020-02-28T11:16:12.000Z</time>
      </trkpt>
      <trkpt lat="44.93509" lon="5.12064">
        <ele>400.82</ele>
        <time>2020-02-28T11:16:22.000Z</time>
      </trkpt>
      <trkpt lat="44.93519" lon="5.12056">
        <ele>399.26</ele>
        <time>2020-02-28T11:16:32.000Z</time>
      </trkpt>
      <trkpt lat="44.93526" lon="5.12047">
        <ele>397.86</ele>
        <time>2020-02-28T11:16:42.000Z</time>
      </trkpt>
      <trkpt lat="44.93539" lon="5.12039">
        <ele>396.62</ele>
        <time>2020-02-28T11:16:52.000Z</time>
      </trkpt>
      <trkpt lat="44.93546" lon="5.12017">
        <ele>394.07</ele>
        <time>2020-02-28T11:17:02.000Z</time>
      </trkpt>
      <trkpt lat="44.93553" lon="5.12001">
        <ele>392.67</ele>
        <time>2020-02-28T11:17:12.000Z</time>
      </trkpt>
      <trkpt lat="44.93561" lon="5.11988">
        <ele>391.75</ele>
        <time>2020-02-28T11:17:22.000Z</time>
      </trkpt>
      <trkpt lat="44.9357" lon="5.11975">
        <ele>390.66</ele>
        <time>2020-02-28T11:17:32.000Z</time>
      </trkpt>
      <trkpt lat="44.93576" lon="5.11968">
        <ele>390.02</ele>
        <time>2020-02-28T11:17:42.000Z</time>
      </trkpt>
      <trkpt lat="44.93585" lon="5.1197">
        <ele>390.06</ele>
        <time>2020-02-28T11:17:52.000Z</time>
      </trkpt>
      <trkpt lat="44.93591" lon="5.11967">
        <ele>389.7</ele>
        <time>2020-02-28T11:18:10.000Z</time>
      </trkpt>
      <trkpt lat="44.93604" lon="5.11957">
        <ele>388.47</ele>
        <time>2020-02-28T11:18:20.000Z</time>
      </trkpt>
      <trkpt lat="44.93616" lon="5.11948">
        <ele>387.32</ele>
        <time>2020-02-28T11:18:30.000Z</time>
      </trkpt>
      <trkpt lat="44.93627" lon="5.11938">
        <ele>386.26</ele>
        <time>2020-02-28T11:18:40.000Z</time>
      </trkpt>
      <trkpt lat="44.93638" lon="5.11924">
        <ele>384.95</ele>
        <time>2020-02-28T11:18:50.000Z</time>
      </trkpt>
      <trkpt lat="44.93645" lon="5.11907">
        <ele>383.73</ele>
        <time>2020-02-28T11:19:00.000Z</time>
      </trkpt>
      <trkpt lat="44.93658" lon="5.11894">
        <ele>382.59</ele>
        <time>2020-02-28T11:19:10.000Z</time>
      </trkpt>
      <trkpt lat="44.93672" lon="5.11892">
        <ele>382.14</ele>
        <time>2020-02-28T11:19:20.000Z</time>
      </trkpt>
      <trkpt lat="44.93688" lon="5.11894">
        <ele>381.99</ele>
        <time>2020-02-28T11:19:30.000Z</time>
      </trkpt>
      <trkpt lat="44.93701" lon="5.119">
        <ele>382.17</ele>
        <time>2020-02-28T11:19:40.000Z</time>
      </trkpt>
      <trkpt lat="44.93717" lon="5.1189">
        <ele>381.35</ele>
        <time>2020-02-28T11:19:50.000Z</time>
      </trkpt>
      <trkpt lat="44.93728" lon="5.11874">
        <ele>380.43</ele>
        <time>2020-02-28T11:20:00.000Z</time>
      </trkpt>
      <trkpt lat="44.93735" lon="5.11854">
        <ele>379.28</ele>
        <time>2020-02-28T11:20:10.000Z</time>
      </trkpt>
      <trkpt lat="44.93743" lon="5.11845">
        <ele>378.74</ele>
        <time>2020-02-28T11:20:20.000Z</time>
      </trkpt>
      <trkpt lat="44.93752" lon="5.11833">
        <ele>377.99</ele>
        <time>2020-02-28T11:20:30.000Z</time>
      </trkpt>
      <trkpt lat="44.93759" lon="5.11811">
        <ele>376.21</ele>
        <time>2020-02-28T11:20:40.000Z</time>
      </trkpt>
      <trkpt lat="44.93769" lon="5.11803">
        <ele>375.78</ele>
        <time>2020-02-28T11:20:50.000Z</time>
      </trkpt>
      <trkpt lat="44.93776" lon="5.11789">
        <ele>374.93</ele>
        <time>2020-02-28T11:21:00.000Z</time>
      </trkpt>
      <trkpt lat="44.93781" lon="5.1177">
        <ele>373.7</ele>
        <time>2020-02-28T11:21:10.000Z</time>
      </trkpt>
      <trkpt lat="44.93787" lon="5.11756">
        <ele>373.29</ele>
        <time>2020-02-28T11:21:20.000Z</time>
      </trkpt>
      <trkpt lat="44.93796" lon="5.11742">
        <ele>373.59</ele>
        <time>2020-02-28T11:21:30.000Z</time>
      </trkpt>
      <trkpt lat="44.93802" lon="5.11738">
        <ele>374.09</ele>
        <time>2020-02-28T11:21:40.000Z</time>
      </trkpt>
      <trkpt lat="44.93812" lon="5.1174">
        <ele>375.52</ele>
        <time>2020-02-28T11:21:50.000Z</time>
      </trkpt>
      <trkpt lat="44.93828" lon="5.11741">
        <ele>377.17</ele>
        <time>2020-02-28T11:22:00.000Z</time>
      </trkpt>
      <trkpt lat="44.93841" lon="5.1174">
        <ele>377.88</ele>
        <time>2020-02-28T11:22:10.000Z</time>
      </trkpt>
      <trkpt lat="44.93853" lon="5.11739">
        <ele>378.25</ele>
        <time>2020-02-28T11:22:20.000Z</time>
      </trkpt>
      <trkpt lat="44.93858" lon="5.1173">
        <ele>377.94</ele>
        <time>2020-02-28T11:22:30.000Z</time>
      </trkpt>
      <trkpt lat="44.93858" lon="5.11709">
        <ele>376.79</ele>
        <time>2020-02-28T11:22:40.000Z</time>
      </trkpt>
      <trkpt lat="44.93853" lon="5.11693">
        <ele>375.62</ele>
        <time>2020-02-28T11:22:50.000Z</time>
      </trkpt>
      <trkpt lat="44.93853" lon="5.11676">
        <ele>374.68</ele>
        <time>2020-02-28T11:23:00.000Z</time>
      </trkpt>
      <trkpt lat="44.93851" lon="5.11652">
        <ele>373.31</ele>
        <time>2020-02-28T11:23:10.000Z</time>
      </trkpt>
      <trkpt lat="44.93856" lon="5.11632">
        <ele>372.68</ele>
        <time>2020-02-28T11:23:20.000Z</time>
      </trkpt>
      <trkpt lat="44.9387" lon="5.11636">
        <ele>373.59</ele>
        <time>2020-02-28T11:23:30.000Z</time>
      </trkpt>
      <trkpt lat="44.93881" lon="5.11639">
        <ele>374.21</ele>
        <time>2020-02-28T11:23:40.000Z</time>
      </trkpt>
      <trkpt lat="44.93894" lon="5.11634">
        <ele>374.41</ele>
        <time>2020-02-28T11:23:50.000Z</time>
      </trkpt>
      <trkpt lat="44.93901" lon="5.11632">
        <ele>374.48</ele>
        <time>2020-02-28T11:24:01.000Z</time>
      </trkpt>
      <trkpt lat="44.93904" lon="5.11631">
        <ele>374.49</ele>
        <time>2020-02-28T11:24:25.000Z</time>
      </trkpt>
    </trkseg>
  </trk>
</gpx>